5X789 / N254UP 7700 Squawk Report (14th of October, 2019)

Aircraft MD11 Reg No. N254UP Age 26 years old
Model MD-11 Jet engines 3 First flight 23-10-93
Registered 01-07-02 Rollout 07-93 Delivered 30-12-93
Construction No. 48406 Line No. 547 Series F
ADSHEX A2682A Airline name UPS Airlines Owner Boeing Capital Corporation
Airfield based Louisville International-Standiford Field~KY~N First tracked 2017-07-13 01:15:00

Flight history for N254UP

Route Flight No Date Playback
Louisville International Airport (SDF) - Toronto Pearson International (YYZ) 5X488 2019-11-21 11:07:00
General Mitchell Intl (MKE) - Louisville International Airport (SDF) 5X541 2019-11-21 09:42:00
Louisville International Airport (SDF) - General Mitchell Intl (MKE) 5X542 2019-11-20 11:43:00
Minneapolis-St.Paul Intl (MSP) - Louisville International Airport (SDF) 5X559 2019-11-20 10:43:00
Louisville International Airport (SDF) - Minneapolis-St.Paul Intl (MSP) 5X2560 2019-11-20 03:41:00
Newark Liberty Intl (EWR) - Louisville International Airport (SDF) 5X2075 2019-11-19 21:29:00
???? 5X1096 2019-11-19 15:36:00
???? N/A 2019-11-19 06:04:00
Kona Intl At Keahole (KOA) - SBD 5X2965 2019-11-18 20:27:00
Daniel K. Inouye International (HNL) - Ontario Intl (ONT) 5X2962 2019-11-18 12:49:00
Daniel K. Inouye International (HNL) - Ontario Intl (ONT) 5X902 2019-11-17 23:12:00
Boeing Fld King Co Intl (BFI) - Louisville International Airport (SDF) 5X985 2019-11-17 19:20:00
Louisville International Airport (SDF) - Boeing Fld King Co Intl (BFI) 5X982 2019-11-16 14:30:00
John F Kennedy Intl (JFK) - Louisville International Airport (SDF) 5X1111 2019-11-16 09:51:00
Louisville International Airport (SDF) - John F Kennedy Intl (JFK) 5X1114 2019-11-15 12:02:00
Capital City (LAN) - Louisville International Airport (SDF) 5X1477 2019-11-15 03:52:00
Louisville International Airport (SDF) - Capital City (LAN) 5X1478 2019-11-14 10:07:00
???? N/A 2019-11-14 09:20:00
Kona Intl At Keahole (PHKO) - KSBD 5X2965 2019-11-14 01:01:00
Louisville International Airport (SDF) - Ontario Intl (ONT) 5X2964 2019-11-13 14:09:00
Time Lat Lon Altitude Heading Speed Vertical Rate
2019-10-15 07:46:40 GMT 38.162231 -85.732658 0 0
2019-10-15 07:46:15 GMT 38.162235 -85.732658 0 0
2019-10-15 07:46:00 GMT 38.162231 -85.732658 0 0
2019-10-15 07:45:45 GMT 38.162235 -85.732658 0 0
2019-10-15 07:45:25 GMT 38.162231 -85.732658 0 0
2019-10-15 07:44:04 GMT 38.162235 -85.732658 0 0
2019-10-15 07:43:40 GMT 38.162231 -85.732658 0 0
2019-10-15 07:43:20 GMT 38.162235 -85.732674 0 0
2019-10-15 07:43:10 GMT 38.162231 -85.732658 0 0
2019-10-15 07:43:00 GMT 38.162235 -85.732658 0 0
2019-10-15 07:42:50 GMT 38.162231 -85.732658 0 0
2019-10-15 07:42:24 GMT 38.162235 -85.732658 0 0
2019-10-15 07:42:09 GMT 38.162235 -85.732674 0 0
2019-10-15 07:41:49 GMT 38.162235 -85.732658 0 0
2019-10-15 07:41:44 GMT 38.162231 -85.732674 0 0
2019-10-15 07:41:34 GMT 38.162235 -85.732674 0 0
2019-10-15 07:41:24 GMT 38.162235 -85.732658 0 0
2019-10-15 07:39:30 GMT 38.162231 -85.732658 0 0
2019-10-15 07:38:50 GMT 38.162224 -85.732658 0 0
2019-10-15 07:38:35 GMT 38.162235 -85.732658 0 0
2019-10-15 07:38:20 GMT 38.162224 -85.732658 0 0
2019-10-15 07:38:15 GMT 38.162231 -85.732658 0 0
2019-10-15 07:37:55 GMT 38.162235 -85.732658 0 0
2019-10-15 07:37:40 GMT 38.162224 -85.732658 0 0
2019-10-15 07:37:25 GMT 38.162231 -85.732658 0 0
2019-10-15 07:37:15 GMT 38.162224 -85.732658 0 0
2019-10-15 07:37:00 GMT 38.162231 -85.732658 0 0
2019-10-15 07:35:54 GMT 38.162224 -85.732658 0 0
2019-10-15 07:35:29 GMT 38.162231 -85.732658 0 0
2019-10-15 07:34:59 GMT 38.162235 -85.732658 0 0
2019-10-15 07:34:24 GMT 38.162231 -85.732658 0 0
2019-10-15 07:34:04 GMT 38.162224 -85.732658 0 0
2019-10-15 07:33:19 GMT 38.162231 -85.732658 0 0
2019-10-15 07:33:09 GMT 38.162224 -85.732658 0 0
2019-10-15 07:32:49 GMT 38.162231 -85.732658 0 0
2019-10-15 07:32:24 GMT 38.162220 -85.732658 0 0
2019-10-15 07:32:19 GMT 38.162231 -85.732658 0 0
2019-10-15 07:32:04 GMT 38.162220 -85.732658 0 0
2019-10-15 07:31:59 GMT 38.162224 -85.732658 0 0
2019-10-15 07:31:34 GMT 38.162220 -85.732658 0 0
2019-10-15 07:31:19 GMT 38.162224 -85.732658 0 0
2019-10-15 07:31:09 GMT 38.162231 -85.732658 0 0
2019-10-15 07:30:39 GMT 38.162224 -85.732658 0 0
2019-10-15 07:30:19 GMT 38.162224 -85.732674 0 0
2019-10-15 07:29:44 GMT 38.162231 -85.732658 0 0
2019-10-15 07:29:24 GMT 38.162224 -85.732658 0 0
2019-10-15 07:29:14 GMT 38.162220 -85.732658 0 0
2019-10-15 07:29:04 GMT 38.162231 -85.732658 0 0
2019-10-15 07:28:53 GMT 38.162224 -85.732658 0 0
2019-10-15 07:28:33 GMT 38.162231 -85.732658 0 0
2019-10-15 07:28:13 GMT 38.162224 -85.732658 0 0
2019-10-15 07:28:03 GMT 38.162220 -85.732658 0 0
2019-10-15 07:27:53 GMT 38.162231 -85.732658 0 0
2019-10-15 07:27:43 GMT 38.162224 -85.732658 0 0
2019-10-15 07:27:33 GMT 38.162231 -85.732658 0 0
2019-10-15 07:27:02 GMT 38.162224 -85.732658 0 0
2019-10-15 07:26:57 GMT 38.162235 -85.732658 0 0
2019-10-15 07:26:17 GMT 38.162224 -85.732658 0 0
2019-10-15 07:25:57 GMT 38.162231 -85.732658 0 0
2019-10-15 07:25:27 GMT 38.162224 -85.732658 0 0
2019-10-15 07:24:42 GMT 38.162231 -85.732658 0 0
2019-10-15 07:24:32 GMT 38.162224 -85.732658 0 0
2019-10-15 07:24:17 GMT 38.162235 -85.732658 0 0
2019-10-15 07:24:02 GMT 38.162224 -85.732658 0 0
2019-10-15 07:23:47 GMT 38.162231 -85.732658 0 0
2019-10-15 07:23:42 GMT 38.162224 -85.732658 0 0
2019-10-15 07:22:42 GMT 38.162231 -85.732658 0 0
2019-10-15 07:22:17 GMT 38.162224 -85.732658 0 0
2019-10-15 07:21:57 GMT 38.162231 -85.732658 0 0
2019-10-15 07:21:47 GMT 38.162224 -85.732674 0 0
2019-10-15 07:21:12 GMT 38.162224 -85.732658 0 0
2019-10-15 07:21:02 GMT 38.162231 -85.732658 0 0
2019-10-15 07:20:52 GMT 38.162224 -85.732674 0 0
2019-10-15 07:20:42 GMT 38.162231 -85.732658 0 0
2019-10-15 07:20:26 GMT 38.162220 -85.732658 0 0
2019-10-15 07:20:21 GMT 38.162224 -85.732658 0 0
2019-10-15 07:20:02 GMT 38.162231 -85.732658 0 0
2019-10-15 07:19:52 GMT 38.162224 -85.732658 0 0
2019-10-15 07:19:12 GMT 38.162235 -85.732658 0 0
2019-10-15 07:18:52 GMT 38.162224 -85.732658 0 0
2019-10-15 07:18:47 GMT 38.162231 -85.732658 0 0
2019-10-15 07:18:37 GMT 38.162235 -85.732658 0 0
2019-10-15 07:17:52 GMT 38.162224 -85.732658 0 0
2019-10-15 07:17:42 GMT 38.162235 -85.732658 0 0
2019-10-15 07:17:22 GMT 38.162231 -85.732658 0 0
2019-10-15 07:17:03 GMT 38.162235 -85.732658 0 0
2019-10-15 07:16:52 GMT 38.162231 -85.732658 0 0
2019-10-15 07:16:22 GMT 38.162235 -85.732658 0 0
2019-10-15 07:16:02 GMT 38.162231 -85.732658 0 0
2019-10-15 07:15:42 GMT 38.162235 -85.732658 0 0
2019-10-15 07:15:37 GMT 38.162231 -85.732658 0 0
2019-10-15 07:15:27 GMT 38.162224 -85.732658 0 0
2019-10-15 07:15:17 GMT 38.162235 -85.732658 0 0
2019-10-15 07:15:02 GMT 38.162231 -85.732658 0 0
2019-10-15 07:14:31 GMT 38.162235 -85.732658 0 0
2019-10-15 07:14:17 GMT 38.162224 -85.732658 0 0
2019-10-15 07:13:57 GMT 38.162231 -85.732658 0 0
2019-10-15 07:13:47 GMT 38.162224 -85.732658 0 0
2019-10-15 07:13:12 GMT 38.162231 -85.732658 0 0
2019-10-15 07:11:57 GMT 38.162224 -85.732658 0 0
2019-10-15 07:11:47 GMT 38.162220 -85.732658 0 0
2019-10-15 07:11:17 GMT 38.162224 -85.732658 0 0
2019-10-15 07:11:06 GMT 38.162220 -85.732658 0 0
2019-10-15 07:10:26 GMT 38.162224 -85.732658 0 0
2019-10-15 07:10:21 GMT 38.162231 -85.732658 0 0
2019-10-15 07:10:11 GMT 38.162224 -85.732658 0 0
2019-10-15 07:10:02 GMT 38.162220 -85.732658 0 0
2019-10-15 07:09:47 GMT 38.162224 -85.732658 0 0
2019-10-15 07:09:22 GMT 38.162231 -85.732658 0 0
2019-10-15 07:09:12 GMT 38.162220 -85.732658 0 0
2019-10-15 07:08:22 GMT 38.162224 -85.732658 0 0
2019-10-15 07:08:16 GMT 38.162220 -85.732658 0 0
2019-10-15 07:08:06 GMT 38.162231 -85.732658 0 0
2019-10-15 07:07:41 GMT 38.162224 -85.732658 0 0
2019-10-15 07:07:31 GMT 38.162231 -85.732658 0 0
2019-10-15 07:07:05 GMT 38.162224 -85.732658 0 0
2019-10-15 07:06:55 GMT 38.162220 -85.732658 0 0
2019-10-15 07:06:31 GMT 38.162224 -85.732658 0 0
2019-10-15 07:05:40 GMT 38.162231 -85.732658 0 0
2019-10-15 07:05:15 GMT 38.162224 -85.732658 0 0
2019-10-15 07:05:00 GMT 38.162231 -85.732658 0 0
2019-10-15 07:04:50 GMT 38.162224 -85.732658 0 0
2019-10-15 07:04:40 GMT 38.162231 -85.732658 0 0
2019-10-15 07:03:40 GMT 38.162224 -85.732658 0 0
2019-10-15 07:03:35 GMT 38.162231 -85.732658 0 0
2019-10-15 07:03:05 GMT 38.162224 -85.732658 0 0
2019-10-15 07:02:55 GMT 38.162231 -85.732658 0 0
2019-10-15 07:02:44 GMT 38.162224 -85.732658 0 0
2019-10-15 07:02:29 GMT 38.162231 -85.732658 0 0
2019-10-15 07:02:19 GMT 38.162224 -85.732658 0 0
2019-10-15 07:02:04 GMT 38.162231 -85.732658 0 0
2019-10-15 07:01:49 GMT 38.162224 -85.732658 0 0
2019-10-15 07:01:39 GMT 38.162220 -85.732658 0 0
2019-10-15 07:01:09 GMT 38.162231 -85.732658 0 0
2019-10-15 07:00:59 GMT 38.162224 -85.732658 0 0
2019-10-15 07:00:34 GMT 38.162231 -85.732658 0 0
2019-10-15 07:00:15 GMT 38.162220 -85.732658 0 0
2019-10-15 07:00:05 GMT 38.162224 -85.732658 0 0
2019-10-15 06:59:44 GMT 38.162220 -85.732658 0 0
2019-10-15 06:59:29 GMT 38.162224 -85.732658 0 0
2019-10-15 06:59:19 GMT 38.162231 -85.732658 0 0
2019-10-15 06:59:04 GMT 38.162220 -85.732658 0 0
2019-10-15 06:58:54 GMT 38.162231 -85.732658 0 0
2019-10-15 06:58:10 GMT 38.162224 -85.732658 0 0
2019-10-15 06:57:55 GMT 38.162220 -85.732658 0 0
2019-10-15 06:57:30 GMT 38.162224 -85.732658 0 0
2019-10-15 06:57:20 GMT 38.162220 -85.732658 0 0
2019-10-15 06:56:29 GMT 38.162224 -85.732658 0 0
2019-10-15 06:56:15 GMT 38.162231 -85.732658 0 0
2019-10-15 06:55:45 GMT 38.162224 -85.732658 0 0
2019-10-15 06:55:30 GMT 38.162231 -85.732658 0 0
2019-10-15 06:55:20 GMT 38.162224 -85.732658 0 0
2019-10-15 06:54:54 GMT 38.162224 -85.732674 0 0
2019-10-15 06:54:44 GMT 38.162231 -85.732658 0 0
2019-10-15 06:54:40 GMT 38.162220 -85.732658 0 0
2019-10-15 06:54:19 GMT 38.162224 -85.732658 0 0
2019-10-15 06:53:59 GMT 38.162231 -85.732658 0 0
2019-10-15 06:53:34 GMT 38.162224 -85.732658 0 0
2019-10-15 06:53:19 GMT 38.162231 -85.732658 0 0
2019-10-15 06:53:14 GMT 38.162224 -85.732658 0 0
2019-10-15 06:53:04 GMT 38.162235 -85.732658 0 0
2019-10-15 06:52:54 GMT 38.162224 -85.732674 0 0
2019-10-15 06:52:34 GMT 38.162231 -85.732658 0 0
2019-10-15 06:52:14 GMT 38.162235 -85.732658 0 0
2019-10-15 06:51:29 GMT 38.162231 -85.732658 0 0
2019-10-15 06:51:09 GMT 38.162235 -85.732658 0 0
2019-10-15 06:50:59 GMT 38.162224 -85.732658 0 0
2019-10-15 06:50:44 GMT 38.162235 -85.732658 0 0
2019-10-15 06:50:24 GMT 38.162231 -85.732658 0 0
2019-10-15 06:49:54 GMT 38.162224 -85.732658 0 0
2019-10-15 06:49:44 GMT 38.162231 -85.732658 0 0
2019-10-15 06:49:24 GMT 38.162224 -85.732658 0 0
2019-10-15 06:48:19 GMT 38.162231 -85.732658 0 0
2019-10-15 06:47:49 GMT 38.162220 -85.732658 0 0
2019-10-15 06:47:39 GMT 38.162224 -85.732658 0 0
2019-10-15 06:47:29 GMT 38.162231 -85.732658 0 0
2019-10-15 06:47:19 GMT 38.162224 -85.732658 0 0
2019-10-15 06:47:04 GMT 38.162220 -85.732658 0 0
2019-10-15 06:46:59 GMT 38.162224 -85.732658 0 0
2019-10-15 06:46:49 GMT 38.162220 -85.732658 0 0
2019-10-15 06:46:34 GMT 38.162224 -85.732658 0 0
2019-10-15 06:46:24 GMT 38.162220 -85.732658 0 0
2019-10-15 06:45:43 GMT 38.162224 -85.732658 0 0
2019-10-15 06:45:33 GMT 38.162220 -85.732658 0 0
2019-10-15 06:45:08 GMT 38.162224 -85.732658 0 0
2019-10-15 06:44:58 GMT 38.162231 -85.732658 0 0
2019-10-15 06:44:53 GMT 38.162224 -85.732658 0 0
2019-10-15 06:44:32 GMT 38.162220 -85.732658 0 0
2019-10-15 06:43:52 GMT 38.162224 -85.732658 0 0
2019-10-15 06:43:32 GMT 38.162220 -85.732658 0 0
2019-10-15 06:43:27 GMT 38.162224 -85.732658 0 0
2019-10-15 06:42:57 GMT 38.162220 -85.732658 0 0
2019-10-15 06:42:37 GMT 38.162224 -85.732658 0 0
2019-10-15 06:42:12 GMT 38.162220 -85.732658 0 0
2019-10-15 06:41:42 GMT 38.162224 -85.732658 0 0
2019-10-15 06:41:32 GMT 38.162220 -85.732658 0 0
2019-10-15 06:41:12 GMT 38.162224 -85.732658 0 0
2019-10-15 06:40:52 GMT 38.162220 -85.732658 0 0
2019-10-15 06:40:37 GMT 38.162224 -85.732658 0 0
2019-10-15 06:39:57 GMT 38.162220 -85.732658 0 0
2019-10-15 06:39:37 GMT 38.162224 -85.732658 0 0
2019-10-15 06:39:27 GMT 38.162231 -85.732658 0 0
2019-10-15 06:38:52 GMT 38.162224 -85.732658 0 0
2019-10-15 06:38:42 GMT 38.162231 -85.732658 0 0
2019-10-15 06:38:22 GMT 38.162224 -85.732658 0 0
2019-10-15 06:38:02 GMT 38.162235 -85.732658 0 0
2019-10-15 06:36:57 GMT 38.162224 -85.732658 0 0
2019-10-15 06:36:12 GMT 38.162231 -85.732658 0 0
2019-10-15 06:36:02 GMT 38.162235 -85.732658 0 0
2019-10-15 06:35:57 GMT 38.162224 -85.732658 0 0
2019-10-15 06:35:47 GMT 38.162231 -85.732658 0 0
2019-10-15 06:35:37 GMT 38.162235 -85.732658 0 0
2019-10-15 06:34:57 GMT 38.162231 -85.732658 0 0
2019-10-15 06:34:37 GMT 38.162224 -85.732658 0 0
2019-10-15 06:34:12 GMT 38.162231 -85.732658 0 0
2019-10-15 06:34:02 GMT 38.162224 -85.732658 0 0
2019-10-15 06:33:52 GMT 38.162235 -85.732658 0 0
2019-10-15 06:33:02 GMT 38.162231 -85.732658 0 0
2019-10-15 06:32:37 GMT 38.162224 -85.732658 0 0
2019-10-15 06:32:12 GMT 38.162231 -85.732658 0 0
2019-10-15 06:31:56 GMT 38.162224 -85.732658 0 0
2019-10-15 06:31:31 GMT 38.162231 -85.732658 0 0
2019-10-15 06:31:12 GMT 38.162224 -85.732658 0 0
2019-10-15 06:31:02 GMT 38.162220 -85.732658 0 0
2019-10-15 06:30:52 GMT 38.162231 -85.732658 0 0
2019-10-15 06:30:11 GMT 38.162224 -85.732658 0 0
2019-10-15 06:29:46 GMT 38.162231 -85.732658 0 0
2019-10-15 06:29:41 GMT 38.162224 -85.732658 0 0
2019-10-15 06:29:26 GMT 38.162231 -85.732658 0 0
2019-10-15 06:29:07 GMT 38.162224 -85.732658 0 0
2019-10-15 06:28:42 GMT 38.162231 -85.732658 0 0
2019-10-15 06:28:21 GMT 38.162224 -85.732658 0 0
2019-10-15 06:27:56 GMT 38.162220 -85.732658 0 0
2019-10-15 06:27:46 GMT 38.162231 -85.732658 0 0
2019-10-15 06:27:07 GMT 38.162224 -85.732658 0 0
2019-10-15 06:27:02 GMT 38.162231 -85.732658 0 0
2019-10-15 06:26:52 GMT 38.162224 -85.732658 0 0
2019-10-15 06:26:42 GMT 38.162231 -85.732658 0 0
2019-10-15 06:26:27 GMT 38.162235 -85.732658 0 0
2019-10-15 06:26:22 GMT 38.162231 -85.732658 0 0
2019-10-15 06:26:07 GMT 38.162224 -85.732658 0 0
2019-10-15 06:25:57 GMT 38.162231 -85.732658 0 0
2019-10-15 06:25:47 GMT 38.162235 -85.732658 0 0
2019-10-15 06:25:16 GMT 38.162224 -85.732658 0 0
2019-10-15 06:25:06 GMT 38.162231 -85.732658 0 0
2019-10-15 06:24:41 GMT 38.162235 -85.732658 0 0
2019-10-15 06:24:26 GMT 38.162231 -85.732658 0 0
2019-10-15 06:24:05 GMT 38.162235 -85.732658 0 0
2019-10-15 06:23:25 GMT 38.162231 -85.732658 0 0
2019-10-15 06:22:40 GMT 38.162235 -85.732658 0 0
2019-10-15 06:22:30 GMT 38.162231 -85.732658 0 0
2019-10-15 06:21:04 GMT 38.162231 -85.732658 0 0
2019-10-15 06:20:49 GMT 38.162224 -85.732658 0 0
2019-10-15 06:20:44 GMT 38.162235 -85.732658 0 0
2019-10-15 06:20:30 GMT 38.162231 -85.732658 0 0
2019-10-15 06:20:25 GMT 38.162235 -85.732658 0 0
2019-10-15 06:20:10 GMT 38.162224 -85.732658 0 0
2019-10-15 06:19:59 GMT 38.162231 -85.732658 0 0
2019-10-15 06:19:44 GMT 38.162224 -85.732658 0 0
2019-10-15 06:19:14 GMT 38.162231 -85.732658 0 0
2019-10-15 06:18:24 GMT 38.162224 -85.732658 0 0
2019-10-15 06:17:59 GMT 38.162231 -85.732658 0 0
2019-10-15 06:17:54 GMT 38.162224 -85.732658 0 0
2019-10-15 06:17:39 GMT 38.162231 -85.732658 0 0
2019-10-15 06:17:29 GMT 38.162224 -85.732658 0 0
2019-10-15 06:17:14 GMT 38.162231 -85.732658 0 0
2019-10-15 06:16:09 GMT 38.162224 -85.732658 0 0
2019-10-15 06:15:30 GMT 38.162220 -85.732658 0 0
2019-10-15 06:14:24 GMT 38.162220 -85.732658 0 0
2019-10-15 06:14:15 GMT 38.162224 -85.732658 0 0
2019-10-15 06:13:49 GMT 38.162220 -85.732658 0 0
2019-10-15 06:13:25 GMT 38.162224 -85.732658 0 0
2019-10-15 06:12:50 GMT 38.162220 -85.732658 0 0
2019-10-15 06:12:29 GMT 38.162224 -85.732658 0 0
2019-10-15 06:12:04 GMT 38.162220 -85.732658 0 0
2019-10-15 06:11:54 GMT 38.162224 -85.732658 0 0
2019-10-15 06:11:39 GMT 38.162220 -85.732658 0 0
2019-10-15 06:11:34 GMT 38.162231 -85.732658 0 0
2019-10-15 06:11:14 GMT 38.162224 -85.732658 0 0
2019-10-15 06:11:04 GMT 38.162220 -85.732658 0 0
2019-10-15 06:10:54 GMT 38.162224 -85.732674 0 0
2019-10-15 06:10:39 GMT 38.162220 -85.732658 0 0
2019-10-15 06:10:24 GMT 38.162224 -85.732658 0 0
2019-10-15 06:10:09 GMT 38.162224 -85.732674 0 0
2019-10-15 06:09:49 GMT 38.162220 -85.732658 0 0
2019-10-15 06:09:29 GMT 38.162224 -85.732658 0 0
2019-10-15 06:09:09 GMT 38.162220 -85.732658 0 0
2019-10-15 06:08:59 GMT 38.162231 -85.732658 0 0
2019-10-15 06:08:49 GMT 38.162220 -85.732658 0 0
2019-10-15 06:08:04 GMT 38.162224 -85.732658 0 0
2019-10-15 06:07:54 GMT 38.162220 -85.732658 0 0
2019-10-15 06:07:44 GMT 38.162231 -85.732658 0 0
2019-10-15 06:07:24 GMT 38.162224 -85.732658 0 0
2019-10-15 06:07:14 GMT 38.162231 -85.732658 0 0
2019-10-15 06:06:39 GMT 38.162224 -85.732658 0 0
2019-10-15 06:06:29 GMT 38.162231 -85.732658 0 0
2019-10-15 06:06:19 GMT 38.162224 -85.732658 0 0
2019-10-15 06:05:49 GMT 38.162231 -85.732658 0 0
2019-10-15 06:05:39 GMT 38.162224 -85.732658 0 0
2019-10-15 06:05:29 GMT 38.162231 -85.732658 0 0
2019-10-15 06:05:19 GMT 38.162224 -85.732658 0 0
2019-10-15 06:05:04 GMT 38.162231 -85.732658 0 0
2019-10-15 06:04:54 GMT 38.162224 -85.732658 0 0
2019-10-15 06:04:44 GMT 38.162231 -85.732658 0 0
2019-10-15 06:04:34 GMT 38.162224 -85.732658 0 0
2019-10-15 06:04:24 GMT 38.162231 -85.732658 0 0
2019-10-15 06:04:14 GMT 38.162224 -85.732658 0 0
2019-10-15 06:04:04 GMT 38.162231 -85.732658 0 0
2019-10-15 06:03:54 GMT 38.162220 -85.732658 0 0
2019-10-15 06:03:34 GMT 38.162224 -85.732658 0 0
2019-10-15 06:03:23 GMT 38.162220 -85.732658 0 0
2019-10-15 06:02:58 GMT 38.162224 -85.732658 0 0
2019-10-15 06:02:38 GMT 38.162231 -85.732658 0 0
2019-10-15 06:01:37 GMT 38.162224 -85.732658 0 0
2019-10-15 06:01:22 GMT 38.162231 -85.732658 0 0
2019-10-15 06:01:02 GMT 38.162224 -85.732658 0 0
2019-10-15 06:00:42 GMT 38.162231 -85.732658 0 0
2019-10-15 06:00:12 GMT 38.162224 -85.732658 0 0
2019-10-15 05:59:32 GMT 38.162231 -85.732658 0 0
2019-10-15 05:59:12 GMT 38.162224 -85.732658 0 0
2019-10-15 05:58:57 GMT 38.162231 -85.732658 0 0
2019-10-15 05:58:47 GMT 38.162224 -85.732658 0 0
2019-10-15 05:58:27 GMT 38.162231 -85.732658 0 0
2019-10-15 05:57:27 GMT 38.162224 -85.732658 0 0
2019-10-15 05:57:16 GMT 38.162220 -85.732658 0 0
2019-10-15 05:57:02 GMT 38.162224 -85.732658 0 0
2019-10-15 05:56:52 GMT 38.162220 -85.732658 0 0
2019-10-15 05:56:32 GMT 38.162224 -85.732658 0 0
2019-10-15 05:56:17 GMT 38.162220 -85.732658 0 0
2019-10-15 05:56:12 GMT 38.162224 -85.732658 0 0
2019-10-15 05:55:42 GMT 38.162220 -85.732658 0 0
2019-10-15 05:54:46 GMT 38.162224 -85.732658 0 0
2019-10-15 05:54:36 GMT 38.162220 -85.732658 0 0
2019-10-15 05:54:17 GMT 38.162224 -85.732658 0 0
2019-10-15 05:53:42 GMT 38.162231 -85.732658 0 0
2019-10-15 05:53:22 GMT 38.162220 -85.732658 0 0
2019-10-15 05:53:12 GMT 38.162224 -85.732658 0 0
2019-10-15 05:53:02 GMT 38.162220 -85.732658 0 0
2019-10-15 05:52:52 GMT 38.162224 -85.732658 0 0
2019-10-15 05:52:42 GMT 38.162220 -85.732658 0 0
2019-10-15 05:52:32 GMT 38.162231 -85.732658 0 0
2019-10-15 05:52:12 GMT 38.162220 -85.732658 0 0
2019-10-15 05:51:57 GMT 38.162231 -85.732658 0 0
2019-10-15 05:51:27 GMT 38.162220 -85.732658 0 0
2019-10-15 05:51:07 GMT 38.162224 -85.732658 0 0
2019-10-15 05:50:47 GMT 38.162220 -85.732658 0 0
2019-10-15 05:50:37 GMT 38.162224 -85.732658 0 0
2019-10-15 05:50:17 GMT 38.162220 -85.732658 0 0
2019-10-15 05:49:52 GMT 38.162224 -85.732658 0 0
2019-10-15 05:49:42 GMT 38.162220 -85.732658 0 0
2019-10-15 05:49:11 GMT 38.162224 -85.732658 0 0
2019-10-15 05:48:41 GMT 38.162231 -85.732658 0 0
2019-10-15 05:48:21 GMT 38.162224 -85.732658 0 0
2019-10-15 05:48:07 GMT 38.162231 -85.732658 0 0
2019-10-15 05:47:26 GMT 38.162224 -85.732658 0 0
2019-10-15 05:47:16 GMT 38.162231 -85.732658 0 0
2019-10-15 05:46:56 GMT 38.162224 -85.732674 0 0
2019-10-15 05:46:46 GMT 38.162224 -85.732658 0 0
2019-10-15 05:46:26 GMT 38.162220 -85.732658 0 0
2019-10-15 05:46:21 GMT 38.162224 -85.732674 0 0
2019-10-15 05:46:01 GMT 38.162220 -85.732658 0 0
2019-10-15 05:45:52 GMT 38.162224 -85.732658 0 0
2019-10-15 05:45:01 GMT 38.162220 -85.732658 0 0
2019-10-15 05:44:26 GMT 38.162224 -85.732658 0 0
2019-10-15 05:44:17 GMT 38.162220 -85.732658 0 0
2019-10-15 05:44:07 GMT 38.162224 -85.732658 0 0
2019-10-15 05:43:57 GMT 38.162231 -85.732658 0 0
2019-10-15 05:43:47 GMT 38.162224 -85.732658 0 0
2019-10-15 05:43:31 GMT 38.162220 -85.732658 0 0
2019-10-15 05:43:21 GMT 38.162224 -85.732658 0 0
2019-10-15 05:43:12 GMT 38.162220 -85.732658 0 0
2019-10-15 05:42:31 GMT 38.162224 -85.732658 0 0
2019-10-15 05:42:06 GMT 38.162220 -85.732658 0 0
2019-10-15 05:42:01 GMT 38.162224 -85.732658 0 0
2019-10-15 05:41:40 GMT 38.162220 -85.732658 0 0
2019-10-15 05:41:20 GMT 38.162224 -85.732658 0 0
2019-10-15 05:40:45 GMT 38.162220 -85.732658 0 0
2019-10-15 05:39:54 GMT 38.162224 -85.732658 0 0
2019-10-15 05:39:34 GMT 38.162220 -85.732658 0 0
2019-10-15 05:39:24 GMT 38.162224 -85.732658 0 0
2019-10-15 05:39:14 GMT 38.162220 -85.732658 0 0
2019-10-15 05:38:50 GMT 38.162224 -85.732658 0 0
2019-10-15 05:38:29 GMT 38.162220 -85.732658 0 0
2019-10-15 05:38:19 GMT 38.162231 -85.732658 0 0
2019-10-15 05:37:29 GMT 38.162224 -85.732658 0 0
2019-10-15 05:37:04 GMT 38.162220 -85.732658 0 0
2019-10-15 05:36:54 GMT 38.162224 -85.732658 0 0
2019-10-15 05:35:49 GMT 38.162224 -85.732658 0 0
2019-10-15 05:35:14 GMT 38.162220 -85.732658 0 0
2019-10-15 05:34:49 GMT 38.162224 -85.732658 0 0
2019-10-15 05:34:19 GMT 38.162231 -85.732658 0 0
2019-10-15 05:34:09 GMT 38.162224 -85.732658 0 0
2019-10-15 05:33:59 GMT 38.162220 -85.732658 0 0
2019-10-15 05:33:49 GMT 38.162224 -85.732658 0 0
2019-10-15 05:33:39 GMT 38.162220 -85.732658 0 0
2019-10-15 05:33:24 GMT 38.162224 -85.732658 0 0
2019-10-15 05:33:14 GMT 38.162220 -85.732658 0 0
2019-10-15 05:32:54 GMT 38.162224 -85.732658 0 0
2019-10-15 05:32:35 GMT 38.162220 -85.732658 0 0
2019-10-15 05:32:25 GMT 38.162224 -85.732658 0 0
2019-10-15 05:32:14 GMT 38.162220 -85.732658 0 0
2019-10-15 05:31:49 GMT 38.162224 -85.732658 0 0
2019-10-15 05:31:39 GMT 38.162220 -85.732658 0 0
2019-10-15 05:31:29 GMT 38.162224 -85.732658 0 0
2019-10-15 05:30:49 GMT 38.162220 -85.732658 0 0
2019-10-15 05:30:39 GMT 38.162224 -85.732658 0 0
2019-10-15 05:30:15 GMT 38.162220 -85.732658 0 0
2019-10-15 05:30:05 GMT 38.162231 -85.732658 0 0
2019-10-15 05:29:44 GMT 38.162224 -85.732674 0 0
2019-10-15 05:29:19 GMT 38.162231 -85.732658 0 0
2019-10-15 05:29:14 GMT 38.162224 -85.732658 0 0
2019-10-15 05:28:54 GMT 38.162220 -85.732658 0 0
2019-10-15 05:28:39 GMT 38.162224 -85.732658 0 0
2019-10-15 05:28:24 GMT 38.162231 -85.732658 0 0
2019-10-15 05:28:19 GMT 38.162220 -85.732658 0 0
2019-10-15 05:27:49 GMT 38.162224 -85.732658 0 0
2019-10-15 05:27:39 GMT 38.162231 -85.732658 0 0
2019-10-15 05:27:14 GMT 38.162224 -85.732658 0 0
2019-10-15 05:26:44 GMT 38.162220 -85.732658 0 0
2019-10-15 05:26:03 GMT 38.162224 -85.732658 0 0
2019-10-15 05:25:48 GMT 38.162231 -85.732658 0 0
2019-10-15 05:25:44 GMT 38.162224 -85.732658 0 0
2019-10-15 05:25:34 GMT 38.162224 -85.732674 0 0
2019-10-15 05:25:19 GMT 38.162220 -85.732658 0 0
2019-10-15 05:25:09 GMT 38.162224 -85.732674 0 0
2019-10-15 05:24:59 GMT 38.162224 -85.732658 0 0
2019-10-15 05:24:39 GMT 38.162220 -85.732658 0 0
2019-10-15 05:24:14 GMT 38.162224 -85.732658 0 0
2019-10-15 05:24:08 GMT 38.162220 -85.732658 0 0
2019-10-15 05:23:59 GMT 38.162231 -85.732658 0 0
2019-10-15 05:23:44 GMT 38.162224 -85.732658 0 0
2019-10-15 05:23:38 GMT 38.162220 -85.732658 0 0
2019-10-15 05:23:04 GMT 38.162224 -85.732658 0 0
2019-10-15 05:22:54 GMT 38.162220 -85.732658 0 0
2019-10-15 05:22:24 GMT 38.162224 -85.732658 0 0
2019-10-15 05:22:14 GMT 38.162220 -85.732658 0 0
2019-10-15 05:22:04 GMT 38.162224 -85.732658 0 0
2019-10-15 05:21:54 GMT 38.162220 -85.732658 0 0
2019-10-15 05:21:39 GMT 38.162224 -85.732658 0 0
2019-10-15 05:21:29 GMT 38.162220 -85.732658 0 0
2019-10-15 05:21:08 GMT 38.162224 -85.732658 0 0
2019-10-15 05:20:48 GMT 38.162220 -85.732658 0 0
2019-10-15 05:20:38 GMT 38.162224 -85.732658 0 0
2019-10-15 05:20:18 GMT 38.162220 -85.732658 0 0
2019-10-15 05:19:58 GMT 38.162224 -85.732658 0 0
2019-10-15 05:19:22 GMT 38.162220 -85.732658 0 0
2019-10-15 05:18:32 GMT 38.162224 -85.732658 0 0
2019-10-15 05:18:22 GMT 38.162220 -85.732658 0 0
2019-10-15 05:18:12 GMT 38.162231 -85.732658 0 0
2019-10-15 05:18:02 GMT 38.162224 -85.732658 0 0
2019-10-15 05:16:47 GMT 38.162224 -85.732658 0 0
2019-10-15 05:16:27 GMT 38.162220 -85.732658 0 0
2019-10-15 05:16:07 GMT 38.162231 -85.732658 0 0
2019-10-15 05:15:52 GMT 38.162224 -85.732658 0 0
2019-10-15 05:15:42 GMT 38.162224 -85.732674 0 0
2019-10-15 05:15:21 GMT 38.162231 -85.732658 0 0
2019-10-15 05:14:36 GMT 38.162220 -85.732658 0 0
2019-10-15 05:14:06 GMT 38.162224 -85.732658 0 0
2019-10-15 05:13:27 GMT 38.162220 -85.732658 0 0
2019-10-15 05:12:57 GMT 38.162224 -85.732658 0 0
2019-10-15 05:12:41 GMT 38.162220 -85.732658 0 0
2019-10-15 05:12:36 GMT 38.162224 -85.732658 0 0
2019-10-15 05:12:26 GMT 38.162220 -85.732658 0 0
2019-10-15 05:12:01 GMT 38.162224 -85.732658 0 0
2019-10-15 05:11:51 GMT 38.162220 -85.732658 0 0
2019-10-15 05:11:32 GMT 38.162224 -85.732658 0 0
2019-10-15 05:11:22 GMT 38.162231 -85.732658 0 0
2019-10-15 05:11:12 GMT 38.162220 -85.732658 0 0
2019-10-15 05:11:02 GMT 38.162224 -85.732658 0 0
2019-10-15 05:10:17 GMT 38.162220 -85.732658 0 0
2019-10-15 05:10:07 GMT 38.162224 -85.732658 0 0
2019-10-15 05:09:12 GMT 38.162220 -85.732658 0 0
2019-10-15 05:09:07 GMT 38.162224 -85.732658 0 0
2019-10-15 05:08:42 GMT 38.162220 -85.732658 0 0
2019-10-15 05:08:32 GMT 38.162224 -85.732658 0 0
2019-10-15 05:08:22 GMT 38.162224 -85.732674 0 0
2019-10-15 05:08:12 GMT 38.162231 -85.732658 0 0
2019-10-15 05:08:02 GMT 38.162220 -85.732658 0 0
2019-10-15 05:07:52 GMT 38.162224 -85.732658 0 0
2019-10-15 05:07:32 GMT 38.162220 -85.732658 0 0
2019-10-15 05:07:22 GMT 38.162224 -85.732658 0 0
2019-10-15 05:06:51 GMT 38.162220 -85.732658 0 0
2019-10-15 05:06:36 GMT 38.162224 -85.732658 0 0
2019-10-15 05:06:16 GMT 38.162220 -85.732658 0 0
2019-10-15 05:06:06 GMT 38.162224 -85.732658 0 0
2019-10-15 05:05:56 GMT 38.162220 -85.732658 0 0
2019-10-15 05:05:26 GMT 38.162224 -85.732658 0 0
2019-10-15 05:05:16 GMT 38.162220 -85.732658 0 0
2019-10-15 05:04:41 GMT 38.162224 -85.732658 0 0
2019-10-15 05:04:31 GMT 38.162220 -85.732658 0 0
2019-10-15 05:04:01 GMT 38.162224 -85.732658 0 0
2019-10-15 05:03:41 GMT 38.162220 -85.732658 0 0
2019-10-15 05:03:31 GMT 38.162224 -85.732658 0 0
2019-10-15 05:03:21 GMT 38.162231 -85.732658 0 0
2019-10-15 05:03:06 GMT 38.162224 -85.732658 0 0
2019-10-15 05:02:16 GMT 38.162220 -85.732658 0 0
2019-10-15 05:02:06 GMT 38.162224 -85.732658 0 0
2019-10-15 05:01:56 GMT 38.162231 -85.732658 0 0
2019-10-15 05:01:21 GMT 38.162224 -85.732658 0 0
2019-10-15 05:01:12 GMT 38.162231 -85.732658 0 0
2019-10-15 05:01:02 GMT 38.162224 -85.732658 0 0
2019-10-15 05:00:51 GMT 38.162220 -85.732658 0 0
2019-10-15 05:00:41 GMT 38.162224 -85.732658 0 0
2019-10-15 05:00:31 GMT 38.162220 -85.732658 0 0
2019-10-15 04:59:51 GMT 38.162224 -85.732658 0 0
2019-10-15 04:59:26 GMT 38.162220 -85.732658 0 0
2019-10-15 04:59:16 GMT 38.162224 -85.732658 0 0
2019-10-15 04:58:55 GMT 38.162220 -85.732658 0 0
2019-10-15 04:58:35 GMT 38.162224 -85.732658 0 0
2019-10-15 04:58:15 GMT 38.162220 -85.732658 0 0
2019-10-15 04:58:05 GMT 38.162224 -85.732658 0 0
2019-10-15 04:57:55 GMT 38.162220 -85.732658 0 0
2019-10-15 04:56:54 GMT 38.162224 -85.732658 0 0
2019-10-15 04:56:19 GMT 38.162220 -85.732658 0 0
2019-10-15 04:56:05 GMT 38.162224 -85.732658 0 0
2019-10-15 04:55:54 GMT 38.162220 -85.732658 0 0
2019-10-15 04:55:49 GMT 38.162224 -85.732658 0 0
2019-10-15 04:55:24 GMT 38.162220 -85.732658 0 0
2019-10-15 04:55:04 GMT 38.162224 -85.732658 0 0
2019-10-15 04:54:49 GMT 38.162220 -85.732658 0 0
2019-10-15 04:54:44 GMT 38.162224 -85.732658 0 0
2019-10-15 04:54:24 GMT 38.162220 -85.732658 0 0
2019-10-15 04:54:09 GMT 38.162224 -85.732658 0 0
2019-10-15 04:53:54 GMT 38.162220 -85.732658 0 0
2019-10-15 04:53:19 GMT 38.162224 -85.732658 0 0
2019-10-15 04:52:59 GMT 38.162220 -85.732658 0 0
2019-10-15 04:52:44 GMT 38.162231 -85.732658 0 0
2019-10-15 04:52:39 GMT 38.162220 -85.732658 0 0
2019-10-15 04:52:24 GMT 38.162224 -85.732674 0 0
2019-10-15 04:52:14 GMT 38.162224 -85.732658 0 0
2019-10-15 04:52:09 GMT 38.162220 -85.732658 0 0
2019-10-15 04:51:44 GMT 38.162231 -85.732658 0 0
2019-10-15 04:51:24 GMT 38.162224 -85.732658 0 0
2019-10-15 04:51:14 GMT 38.162231 -85.732658 0 0
2019-10-15 04:51:04 GMT 38.162224 -85.732658 0 0
2019-10-15 04:50:54 GMT 38.162231 -85.732658 0 0
2019-10-15 04:50:09 GMT 38.162224 -85.732658 0 0
2019-10-15 04:49:50 GMT 38.162220 -85.732658 0 0
2019-10-15 04:49:40 GMT 38.162224 -85.732658 0 0
2019-10-15 04:49:29 GMT 38.162220 -85.732658 0 0
2019-10-15 04:49:09 GMT 38.162224 -85.732658 0 0
2019-10-15 04:48:59 GMT 38.162220 -85.732658 0 0
2019-10-15 04:48:44 GMT 38.162224 -85.732658 0 0
2019-10-15 04:48:24 GMT 38.162220 -85.732658 0 0
2019-10-15 04:48:14 GMT 38.162231 -85.732658 0 0
2019-10-15 04:48:04 GMT 38.162220 -85.732658 0 0
2019-10-15 04:47:44 GMT 38.162224 -85.732658 0 0
2019-10-15 04:47:25 GMT 38.162220 -85.732658 0 0
2019-10-15 04:47:09 GMT 38.162224 -85.732658 0 0
2019-10-15 04:46:39 GMT 38.162220 -85.732658 0 0
2019-10-15 04:46:29 GMT 38.162224 -85.732658 0 0
2019-10-15 04:46:04 GMT 38.162220 -85.732658 0 0
2019-10-15 04:45:44 GMT 38.162224 -85.732658 0 0
2019-10-15 04:45:29 GMT 38.162220 -85.732658 0 0
2019-10-15 04:45:14 GMT 38.162224 -85.732658 0 0
2019-10-15 04:44:53 GMT 38.162220 -85.732658 0 0
2019-10-15 04:44:43 GMT 38.162224 -85.732658 0 0
2019-10-15 04:44:34 GMT 38.162220 -85.732658 0 0
2019-10-15 04:44:04 GMT 38.162224 -85.732658 0 0
2019-10-15 04:43:54 GMT 38.162220 -85.732658 0 0
2019-10-15 04:43:18 GMT 38.162224 -85.732658 0 0
2019-10-15 04:43:08 GMT 38.162231 -85.732658 0 0
2019-10-15 04:42:38 GMT 38.162224 -85.732658 0 0
2019-10-15 04:42:04 GMT 38.162231 -85.732658 0 0
2019-10-15 04:41:54 GMT 38.162220 -85.732658 0 0
2019-10-15 04:41:28 GMT 38.162224 -85.732658 0 0
2019-10-15 04:41:13 GMT 38.162231 -85.732658 0 0
2019-10-15 04:40:58 GMT 38.162224 -85.732658 0 0
2019-10-15 04:40:53 GMT 38.162220 -85.732658 0 0
2019-10-15 04:40:43 GMT 38.162224 -85.732658 0 0
2019-10-15 04:40:34 GMT 38.162231 -85.732658 0 0
2019-10-15 04:40:14 GMT 38.162224 -85.732658 0 0
2019-10-15 04:40:09 GMT 38.162231 -85.732658 0 0
2019-10-15 04:39:54 GMT 38.162224 -85.732658 0 0
2019-10-15 04:39:49 GMT 38.162231 -85.732658 0 0
2019-10-15 04:39:39 GMT 38.162224 -85.732658 0 0
2019-10-15 04:39:29 GMT 38.162231 -85.732658 0 0
2019-10-15 04:39:19 GMT 38.162224 -85.732658 0 0
2019-10-15 04:39:09 GMT 38.162220 -85.732658 0 0
2019-10-15 04:38:59 GMT 38.162231 -85.732658 0 0
2019-10-15 04:38:08 GMT 38.162224 -85.732658 0 0
2019-10-15 04:38:03 GMT 38.162220 -85.732658 0 0
2019-10-15 04:37:53 GMT 38.162224 -85.732658 0 0
2019-10-15 04:37:43 GMT 38.162231 -85.732658 0 0
2019-10-15 04:37:33 GMT 38.162220 -85.732658 0 0
2019-10-15 04:37:18 GMT 38.162224 -85.732658 0 0
2019-10-15 04:37:13 GMT 38.162220 -85.732658 0 0
2019-10-15 04:36:53 GMT 38.162224 -85.732658 0 0
2019-10-15 04:36:43 GMT 38.162220 -85.732658 0 0
2019-10-15 04:36:32 GMT 38.162224 -85.732658 0 0
2019-10-15 04:35:57 GMT 38.162220 -85.732658 0 0
2019-10-15 04:35:42 GMT 38.162231 -85.732658 0 0
2019-10-15 04:35:27 GMT 38.162224 -85.732658 0 0
2019-10-15 04:35:02 GMT 38.162220 -85.732658 0 0
2019-10-15 04:34:37 GMT 38.162224 -85.732658 0 0
2019-10-15 04:34:02 GMT 38.162220 -85.732658 0 0
2019-10-15 04:33:22 GMT 38.162224 -85.732658 0 0
2019-10-15 04:33:02 GMT 38.162220 -85.732658 0 0
2019-10-15 04:32:52 GMT 38.162224 -85.732674 0 0
2019-10-15 04:32:41 GMT 38.162220 -85.732658 0 0
2019-10-15 04:32:16 GMT 38.162224 -85.732674 0 0
2019-10-15 04:31:41 GMT 38.162224 -85.732658 0 0
2019-10-15 04:30:46 GMT 38.162220 -85.732658 0 0
2019-10-15 04:30:37 GMT 38.162224 -85.732658 0 0
2019-10-15 04:30:11 GMT 38.162220 -85.732658 0 0
2019-10-15 04:30:01 GMT 38.162224 -85.732674 0 0
2019-10-15 04:29:51 GMT 38.162220 -85.732658 0 0
2019-10-15 04:29:36 GMT 38.162224 -85.732658 0 0
2019-10-15 04:29:21 GMT 38.162220 -85.732658 0 0
2019-10-15 04:28:47 GMT 38.162224 -85.732658 0 0
2019-10-15 04:28:27 GMT 38.162220 -85.732658 0 0
2019-10-15 04:28:17 GMT 38.162224 -85.732674 0 0
2019-10-15 04:28:07 GMT 38.162231 -85.732658 0 0
2019-10-15 04:27:57 GMT 38.162220 -85.732658 0 0
2019-10-15 04:27:47 GMT 38.162224 -85.732658 0 0
2019-10-15 04:27:37 GMT 38.162231 -85.732658 0 0
2019-10-15 04:27:22 GMT 38.162224 -85.732658 0 0
2019-10-15 04:27:02 GMT 38.162220 -85.732658 0 0
2019-10-15 04:26:51 GMT 38.162231 -85.732658 0 0
2019-10-15 04:26:22 GMT 38.162224 -85.732658 0 0
2019-10-15 04:26:12 GMT 38.162220 -85.732658 0 0
2019-10-15 04:26:02 GMT 38.162231 -85.732658 0 0
2019-10-15 04:25:37 GMT 38.162224 -85.732658 0 0
2019-10-15 04:25:17 GMT 38.162231 -85.732658 0 0
2019-10-15 04:25:02 GMT 38.162224 -85.732658 0 0
2019-10-15 04:24:57 GMT 38.162231 -85.732658 0 0
2019-10-15 04:24:46 GMT 38.162220 -85.732658 0 0
2019-10-15 04:24:36 GMT 38.162224 -85.732658 0 0
2019-10-15 04:24:06 GMT 38.162220 -85.732658 0 0
2019-10-15 04:23:41 GMT 38.162224 -85.732658 0 0
2019-10-15 04:23:31 GMT 38.162220 -85.732658 0 0
2019-10-15 04:23:21 GMT 38.162224 -85.732658 0 0
2019-10-15 04:23:11 GMT 38.162220 -85.732658 0 0
2019-10-15 04:23:01 GMT 38.162224 -85.732658 0 0
2019-10-15 04:22:46 GMT 38.162231 -85.732658 0 0
2019-10-15 04:22:41 GMT 38.162224 -85.732658 0 0
2019-10-15 04:22:31 GMT 38.162220 -85.732658 0 0
2019-10-15 04:21:56 GMT 38.162224 -85.732658 0 0
2019-10-15 04:21:46 GMT 38.162220 -85.732658 0 0
2019-10-15 04:21:16 GMT 38.162224 -85.732658 0 0
2019-10-15 04:20:56 GMT 38.162231 -85.732658 0 0
2019-10-15 04:20:46 GMT 38.162224 -85.732658 0 0
2019-10-15 04:20:36 GMT 38.162220 -85.732658 0 0
2019-10-15 04:20:21 GMT 38.162224 -85.732658 0 0
2019-10-15 04:20:01 GMT 38.162220 -85.732658 0 0
2019-10-15 04:19:31 GMT 38.162231 -85.732658 0 0
2019-10-15 04:19:21 GMT 38.162224 -85.732658 0 0
2019-10-15 04:19:11 GMT 38.162220 -85.732658 0 0
2019-10-15 04:19:01 GMT 38.162224 -85.732658 0 0
2019-10-15 04:18:51 GMT 38.162224 -85.732674 0 0
2019-10-15 04:18:36 GMT 38.162224 -85.732658 0 0
2019-10-15 04:18:26 GMT 38.162220 -85.732658 0 0
2019-10-15 04:18:16 GMT 38.162224 -85.732674 0 0
2019-10-15 04:18:01 GMT 38.162220 -85.732658 0 0
2019-10-15 04:17:56 GMT 38.162224 -85.732658 0 0
2019-10-15 04:17:36 GMT 38.162220 -85.732658 0 0
2019-10-15 04:17:26 GMT 38.162224 -85.732658 0 0
2019-10-15 04:17:06 GMT 38.162235 -85.732674 0 0
2019-10-15 04:16:56 GMT 38.162220 -85.732658 0 0
2019-10-15 04:16:41 GMT 38.162231 -85.732658 0 0
2019-10-15 04:16:30 GMT 38.162224 -85.732658 0 0
2019-10-15 04:16:20 GMT 38.162220 -85.732658 0 0
2019-10-15 04:16:05 GMT 38.162231 -85.732658 0 0
2019-10-15 04:15:50 GMT 38.162224 -85.732658 0 0
2019-10-15 04:15:30 GMT 38.162231 -85.732658 0 0
2019-10-15 04:15:20 GMT 38.162224 -85.732658 0 0
2019-10-15 04:15:10 GMT 38.162231 -85.732658 0 0
2019-10-15 04:14:19 GMT 38.162224 -85.732658 0 0
2019-10-15 04:14:04 GMT 38.162231 -85.732658 0 0
2019-10-15 04:13:54 GMT 38.162224 -85.732658 0 0
2019-10-15 04:13:34 GMT 38.162220 -85.732658 0 0
2019-10-15 04:13:24 GMT 38.162231 -85.732658 0 0
2019-10-15 04:13:14 GMT 38.162220 -85.732658 0 0
2019-10-15 04:13:04 GMT 38.162224 -85.732658 0 0
2019-10-15 04:12:39 GMT 38.162220 -85.732658 0 0
2019-10-15 04:11:59 GMT 38.162224 -85.732658 0 0
2019-10-15 04:11:49 GMT 38.162231 -85.732658 0 0
2019-10-15 04:11:39 GMT 38.162220 -85.732658 0 0
2019-10-15 04:11:29 GMT 38.162224 -85.732658 0 0
2019-10-15 04:11:19 GMT 38.162231 -85.732658 0 0
2019-10-15 04:11:09 GMT 38.162220 -85.732658 0 0
2019-10-15 04:10:34 GMT 38.162224 -85.732658 0 0
2019-10-15 04:09:44 GMT 38.162231 -85.732658 0 0
2019-10-15 04:09:34 GMT 38.162224 -85.732658 0 0
2019-10-15 04:09:04 GMT 38.162231 -85.732658 0 0
2019-10-15 04:08:39 GMT 38.162224 -85.732658 0 0
2019-10-15 04:08:29 GMT 38.162231 -85.732658 0 0
2019-10-15 04:07:24 GMT 38.162224 -85.732658 0 0
2019-10-15 04:06:34 GMT 38.162231 -85.732658 0 0
2019-10-15 04:06:24 GMT 38.162224 -85.732658 0 0
2019-10-15 04:06:14 GMT 38.162231 -85.732658 0 0
2019-10-15 04:05:59 GMT 38.162224 -85.732658 0 0
2019-10-15 04:05:34 GMT 38.162231 -85.732658 0 0
2019-10-15 04:05:29 GMT 38.162220 -85.732658 0 0
2019-10-15 04:04:59 GMT 38.162224 -85.732658 0 0
2019-10-15 04:04:49 GMT 38.162220 -85.732658 0 0
2019-10-15 04:04:39 GMT 38.162231 -85.732658 0 0
2019-10-15 04:04:19 GMT 38.162220 -85.732658 0 0
2019-10-15 04:04:14 GMT 38.162224 -85.732674 0 0
2019-10-15 04:03:54 GMT 38.162220 -85.732658 0 0
2019-10-15 04:03:44 GMT 38.162224 -85.732658 0 0
2019-10-15 04:03:24 GMT 38.162231 -85.732658 0 0
2019-10-15 04:03:14 GMT 38.162224 -85.732658 0 0
2019-10-15 04:02:54 GMT 38.162231 -85.732658 0 0
2019-10-15 04:02:39 GMT 38.162235 -85.732658 0 0
2019-10-15 04:02:18 GMT 38.162224 -85.732658 0 0
2019-10-15 04:01:49 GMT 38.162231 -85.732658 0 0
2019-10-15 04:01:39 GMT 38.162224 -85.732658 0 0
2019-10-15 04:01:29 GMT 38.162224 -85.732674 0 0
2019-10-15 04:00:33 GMT 38.162224 -85.732658 0 0
2019-10-15 04:00:23 GMT 38.162231 -85.732658 0 0
2019-10-15 04:00:13 GMT 38.162224 -85.732674 0 0
2019-10-15 03:59:53 GMT 38.162224 -85.732658 0 0
2019-10-15 03:59:19 GMT 38.162231 -85.732658 0 0
2019-10-15 03:59:09 GMT 38.162220 -85.732658 0 0
2019-10-15 03:58:59 GMT 38.162224 -85.732658 0 0
2019-10-15 03:58:38 GMT 38.162231 -85.732658 0 0
2019-10-15 03:58:28 GMT 38.162220 -85.732658 0 0
2019-10-15 03:58:18 GMT 38.162231 -85.732658 0 0
2019-10-15 03:57:44 GMT 38.162224 -85.732658 0 0
2019-10-15 03:57:29 GMT 38.162224 -85.732674 0 0
2019-10-15 03:57:19 GMT 38.162224 -85.732658 0 0
2019-10-15 03:57:14 GMT 38.162224 -85.732674 0 0
2019-10-15 03:56:44 GMT 38.162220 -85.732658 0 0
2019-10-15 03:55:23 GMT 38.162224 -85.732658 0 0
2019-10-15 03:55:13 GMT 38.162231 -85.732658 0 0
2019-10-15 03:55:08 GMT 38.162224 -85.732658 0 0
2019-10-15 03:54:02 GMT 38.162220 -85.732658 0 0
2019-10-15 03:53:16 GMT 38.162224 -85.732658 0 0
2019-10-15 03:53:07 GMT 38.162231 -85.732658 0 0
2019-10-15 03:52:52 GMT 38.162220 -85.732658 0 0
2019-10-15 03:52:42 GMT 38.162231 -85.732658 0 0
2019-10-15 03:52:32 GMT 38.162224 -85.732658 0 0
2019-10-15 03:52:22 GMT 38.162231 -85.732658 0 0
2019-10-15 03:52:12 GMT 38.162220 -85.732658 0 0
2019-10-15 03:51:57 GMT 38.162224 -85.732658 0 0
2019-10-15 03:51:47 GMT 38.162220 -85.732658 0 0
2019-10-15 03:51:27 GMT 38.162231 -85.732658 0 0
2019-10-15 03:51:06 GMT 38.162224 -85.732658 0 0
2019-10-15 03:50:37 GMT 38.162231 -85.732658 0 0
2019-10-15 03:50:27 GMT 38.162224 -85.732658 0 0
2019-10-15 03:50:11 GMT 38.162235 -85.732658 0 0
2019-10-15 03:49:06 GMT 38.162231 -85.732658 0 0
2019-10-15 03:48:56 GMT 38.162224 -85.732658 0 0
2019-10-15 03:48:41 GMT 38.162231 -85.732658 0 0
2019-10-15 03:47:56 GMT 38.162224 -85.732658 0 0
2019-10-15 03:47:41 GMT 38.162231 -85.732658 0 0
2019-10-15 03:47:16 GMT 38.162224 -85.732658 0 0
2019-10-15 03:47:06 GMT 38.162231 -85.732658 0 0
2019-10-15 03:46:56 GMT 38.162224 -85.732658 0 0
2019-10-15 03:46:21 GMT 38.162231 -85.732658 0 0
2019-10-15 03:46:11 GMT 38.162235 -85.732658 0 0
2019-10-15 03:46:01 GMT 38.162224 -85.732674 0 0
2019-10-15 03:45:12 GMT 38.162231 -85.732658 0 0
2019-10-15 03:44:57 GMT 38.162235 -85.732658 0 0
2019-10-15 03:44:46 GMT 38.162231 -85.732658 0 0
2019-10-15 03:44:37 GMT 38.162235 -85.732658 0 0
2019-10-15 03:44:06 GMT 38.162231 -85.732658 0 0
2019-10-15 03:43:52 GMT 38.162235 -85.732658 0 0
2019-10-15 03:43:47 GMT 38.162224 -85.732658 0 0
2019-10-15 03:43:36 GMT 38.162235 -85.732658 0 0
2019-10-15 03:42:57 GMT 38.162231 -85.732658 0 0
2019-10-15 03:42:51 GMT 38.162235 -85.732674 0 0
2019-10-15 03:42:26 GMT 38.162231 -85.732658 0 0
2019-10-15 03:42:16 GMT 38.162224 -85.732658 0 0
2019-10-15 03:42:01 GMT 38.162231 -85.732658 0 0
2019-10-15 03:41:36 GMT 38.162224 -85.732658 0 0
2019-10-15 03:41:26 GMT 38.162220 -85.732658 0 0
2019-10-15 03:40:56 GMT 38.162224 -85.732658 0 0
2019-10-15 03:40:41 GMT 38.162231 -85.732658 0 0
2019-10-15 03:40:16 GMT 38.162224 -85.732658 0 0
2019-10-15 03:40:06 GMT 38.162235 -85.732658 0 0
2019-10-15 03:39:51 GMT 38.162231 -85.732658 0 0
2019-10-15 03:39:41 GMT 38.162235 -85.732658 0 0
2019-10-15 03:39:26 GMT 38.162224 -85.732658 0 0
2019-10-15 03:39:16 GMT 38.162235 -85.732658 0 0
2019-10-15 03:39:11 GMT 38.162224 -85.732658 0 0
2019-10-15 03:39:01 GMT 38.162231 -85.732658 0 0
2019-10-15 03:38:51 GMT 38.162224 -85.732658 0 0
2019-10-15 03:38:31 GMT 38.162235 -85.732658 0 0
2019-10-15 03:38:21 GMT 38.162231 -85.732658 0 0
2019-10-15 03:38:06 GMT 38.162235 -85.732658 0 0
2019-10-15 03:37:41 GMT 38.162231 -85.732658 0 0
2019-10-15 03:37:36 GMT 38.162235 -85.732658 0 0
2019-10-15 03:36:56 GMT 38.162231 -85.732658 0 0
2019-10-15 03:36:36 GMT 38.162235 -85.732658 0 0
2019-10-15 03:36:06 GMT 38.162224 -85.732658 0 0
2019-10-15 03:36:01 GMT 38.162231 -85.732658 0 0
2019-10-15 03:35:46 GMT 38.162235 -85.732658 0 0
2019-10-15 03:35:41 GMT 38.162231 -85.732658 0 0
2019-10-15 03:35:31 GMT 38.162235 -85.732658 0 0
2019-10-15 03:35:16 GMT 38.162231 -85.732658 0 0
2019-10-15 03:35:11 GMT 38.162235 -85.732674 0 0
2019-10-15 03:35:01 GMT 38.162231 -85.732658 0 0
2019-10-15 03:34:46 GMT 38.162224 -85.732674 0 0
2019-10-15 03:34:36 GMT 38.162231 -85.732658 0 0
2019-10-15 03:34:01 GMT 38.162224 -85.732658 0 0
2019-10-15 03:33:20 GMT 38.162231 -85.732658 0 0
2019-10-15 03:33:05 GMT 38.162224 -85.732658 0 0
2019-10-15 03:32:25 GMT 38.162231 -85.732658 0 0
2019-10-15 03:31:39 GMT 38.162224 -85.732658 0 0
2019-10-15 03:31:19 GMT 38.162231 -85.732658 0 0
2019-10-15 03:31:09 GMT 38.162224 -85.732658 0 0
2019-10-15 03:30:59 GMT 38.162231 -85.732658 0 0
2019-10-15 03:30:34 GMT 38.162224 -85.732658 0 0
2019-10-15 03:29:39 GMT 38.162231 -85.732658 0 0
2019-10-15 03:29:14 GMT 38.162224 -85.732658 0 0
2019-10-15 03:28:49 GMT 38.162231 -85.732658 0 0
2019-10-15 03:27:49 GMT 38.162224 -85.732658 0 0
2019-10-15 03:27:39 GMT 38.162220 -85.732658 0 0
2019-10-15 03:27:24 GMT 38.162224 -85.732658 0 0
2019-10-15 03:27:09 GMT 38.162231 -85.732658 0 0
2019-10-15 03:26:34 GMT 38.162224 -85.732658 0 0
2019-10-15 03:26:14 GMT 38.162231 -85.732658 0 0
2019-10-15 03:25:18 GMT 38.162224 -85.732658 0 0
2019-10-15 03:25:08 GMT 38.162224 -85.732674 0 0
2019-10-15 03:24:59 GMT 38.162220 -85.732658 0 0
2019-10-15 03:24:44 GMT 38.162231 -85.732658 0 0
2019-10-15 03:24:39 GMT 38.162224 -85.732658 0 0
2019-10-15 03:24:24 GMT 38.162220 -85.732658 0 0
2019-10-15 03:24:09 GMT 38.162224 -85.732674 0 0
2019-10-15 03:23:44 GMT 38.162231 -85.732658 0 0
2019-10-15 03:23:34 GMT 38.162224 -85.732658 0 0
2019-10-15 03:22:34 GMT 38.162231 -85.732658 0 0
2019-10-15 03:22:14 GMT 38.162224 -85.732658 0 0
2019-10-15 03:22:09 GMT 38.162231 -85.732658 0 0
2019-10-15 03:21:49 GMT 38.162220 -85.732658 0 0
2019-10-15 03:21:29 GMT 38.162224 -85.732658 0 0
2019-10-15 03:21:09 GMT 38.162231 -85.732658 0 0
2019-10-15 03:20:59 GMT 38.162224 -85.732658 0 0
2019-10-15 03:20:39 GMT 38.162231 -85.732658 0 0
2019-10-15 03:20:29 GMT 38.162224 -85.732658 0 0
2019-10-15 03:20:24 GMT 38.162224 -85.732674 0 0
2019-10-15 03:20:14 GMT 38.162224 -85.732658 0 0
2019-10-15 03:20:04 GMT 38.162231 -85.732658 0 0
2019-10-15 03:19:54 GMT 38.162235 -85.732658 0 0
2019-10-15 03:19:33 GMT 38.162224 -85.732658 0 0
2019-10-15 03:19:23 GMT 38.162231 -85.732658 0 0
2019-10-15 03:19:13 GMT 38.162224 -85.732658 0 0
2019-10-15 03:19:03 GMT 38.162231 -85.732658 0 0
2019-10-15 03:18:49 GMT 38.162224 -85.732658 0 0
2019-10-15 03:18:29 GMT 38.162231 -85.732658 0 0
2019-10-15 03:18:08 GMT 38.162224 -85.732658 0 0
2019-10-15 03:17:58 GMT 38.162224 -85.732674 0 0
2019-10-15 03:17:48 GMT 38.162224 -85.732658 0 0
2019-10-15 03:17:38 GMT 38.162231 -85.732658 0 0
2019-10-15 03:17:28 GMT 38.162224 -85.732658 0 0
2019-10-15 03:17:03 GMT 38.162231 -85.732658 0 0
2019-10-15 03:16:43 GMT 38.162224 -85.732658 0 0
2019-10-15 03:16:23 GMT 38.162231 -85.732658 0 0
2019-10-15 03:16:14 GMT 38.162224 -85.732674 0 0
2019-10-15 03:15:43 GMT 38.162231 -85.732658 0 0
2019-10-15 03:15:28 GMT 38.162224 -85.732674 0 0
2019-10-15 03:15:18 GMT 38.162231 -85.732658 0 0
2019-10-15 03:14:48 GMT 38.162224 -85.732674 0 0
2019-10-15 03:14:39 GMT 38.162231 -85.732658 0 0
2019-10-15 03:14:29 GMT 38.162224 -85.732658 0 0
2019-10-15 03:14:19 GMT 38.162231 -85.732658 0 0
2019-10-15 03:14:09 GMT 38.162224 -85.732674 0 0
2019-10-15 03:13:34 GMT 38.162231 -85.732658 0 0
2019-10-15 03:13:24 GMT 38.162224 -85.732658 0 0
2019-10-15 03:13:13 GMT 38.162231 -85.732658 0 0
2019-10-15 03:13:03 GMT 38.162224 -85.732674 0 0
2019-10-15 03:12:33 GMT 38.162231 -85.732658 0 0
2019-10-15 03:12:23 GMT 38.162224 -85.732658 0 0
2019-10-15 03:12:02 GMT 38.162231 -85.732658 0 0
2019-10-15 03:11:42 GMT 38.162224 -85.732674 0 0
2019-10-15 03:11:37 GMT 38.162235 -85.732658 0 0
2019-10-15 03:11:07 GMT 38.162231 -85.732658 0 0
2019-10-15 03:10:57 GMT 38.162235 -85.732658 0 0
2019-10-15 03:10:42 GMT 38.162235 -85.732674 0 0
2019-10-15 03:10:37 GMT 38.162235 -85.732658 0 0
2019-10-15 03:10:27 GMT 38.162235 -85.732674 0 0
2019-10-15 03:10:17 GMT 38.162235 -85.732658 0 0
2019-10-15 03:09:51 GMT 38.162231 -85.732658 0 0
2019-10-15 03:09:41 GMT 38.162235 -85.732658 0 0
2019-10-15 03:09:32 GMT 38.162231 -85.732658 0 0
2019-10-15 03:05:36 GMT 38.162224 -85.732658 0 0
2019-10-15 03:05:31 GMT 38.162220 -85.732658 0 0
2019-10-15 03:05:16 GMT 38.162224 -85.732658 0 0
2019-10-15 03:05:06 GMT 38.162220 -85.732658 0 0
2019-10-15 03:05:01 GMT 38.162224 -85.732658 0 0
2019-10-15 03:04:36 GMT 38.162220 -85.732658 0 0
2019-10-15 03:04:06 GMT 38.162231 -85.732658 0 0
2019-10-15 03:03:46 GMT 38.162220 -85.732658 0 0
2019-10-15 03:03:36 GMT 38.162224 -85.732674 0 0
2019-10-15 03:03:26 GMT 38.162231 -85.732658 0 0
2019-10-15 03:03:11 GMT 38.162220 -85.732658 0 0
2019-10-15 03:03:02 GMT 38.162224 -85.732658 0 0
2019-10-15 03:02:01 GMT 38.162224 -85.732658 0 0
2019-10-15 03:01:52 GMT 38.162220 -85.732658 0 0
2019-10-15 03:01:26 GMT 38.162224 -85.732658 0 0
2019-10-15 03:01:06 GMT 38.162220 -85.732658 0 0
2019-10-15 03:00:27 GMT 38.162224 -85.732658 0 0
2019-10-15 03:00:06 GMT 38.162220 -85.732658 0 0
2019-10-15 02:59:41 GMT 38.162224 -85.732658 0 0
2019-10-15 02:59:31 GMT 38.162231 -85.732658 0 0
2019-10-15 02:59:11 GMT 38.162224 -85.732658 0 0
2019-10-15 02:59:01 GMT 38.162231 -85.732658 0 0
2019-10-15 02:58:51 GMT 38.162220 -85.732658 0 0
2019-10-15 02:58:26 GMT 38.162224 -85.732658 0 0
2019-10-15 02:58:11 GMT 38.162231 -85.732658 0 0
2019-10-15 02:57:46 GMT 38.162224 -85.732658 0 0
2019-10-15 02:57:36 GMT 38.162231 -85.732658 0 0
2019-10-15 02:57:26 GMT 38.162220 -85.732658 0 0
2019-10-15 02:57:06 GMT 38.162224 -85.732658 0 0
2019-10-15 02:56:31 GMT 38.162231 -85.732658 0 0
2019-10-15 02:56:26 GMT 38.162220 -85.732658 0 0
2019-10-15 02:56:10 GMT 38.162224 -85.732658 0 0
2019-10-15 02:55:56 GMT 38.162231 -85.732658 0 0
2019-10-15 02:55:36 GMT 38.162224 -85.732658 0 0
2019-10-15 02:55:21 GMT 38.162231 -85.732658 0 0
2019-10-15 02:55:01 GMT 38.162224 -85.732658 0 0
2019-10-15 02:54:36 GMT 38.162231 -85.732658 0 0
2019-10-15 02:54:16 GMT 38.162224 -85.732658 0 0
2019-10-15 02:54:06 GMT 38.162231 -85.732658 0 0
2019-10-15 02:53:56 GMT 38.162235 -85.732658 0 0
2019-10-15 02:53:36 GMT 38.162231 -85.732658 0 0
2019-10-15 02:53:01 GMT 38.162220 -85.732658 0 0
2019-10-15 02:52:26 GMT 38.162231 -85.732658 0 0
2019-10-15 02:52:21 GMT 38.162220 -85.732658 0 0
2019-10-15 02:52:11 GMT 38.162224 -85.732658 0 0
2019-10-15 02:51:56 GMT 38.162231 -85.732658 0 0
2019-10-15 02:51:51 GMT 38.162224 -85.732658 0 0
2019-10-15 02:51:41 GMT 38.162231 -85.732658 0 0
2019-10-15 02:51:26 GMT 38.162224 -85.732658 0 0
2019-10-15 02:51:15 GMT 38.162231 -85.732658 0 0
2019-10-15 02:51:05 GMT 38.162224 -85.732658 0 0
2019-10-15 02:50:55 GMT 38.162231 -85.732658 0 0
2019-10-15 02:50:35 GMT 38.162224 -85.732658 0 0
2019-10-15 02:50:25 GMT 38.162220 -85.732658 0 0
2019-10-15 02:50:05 GMT 38.162224 -85.732658 0 0
2019-10-15 02:49:34 GMT 38.162220 -85.732658 0 0
2019-10-15 02:48:49 GMT 38.162231 -85.732658 0 0
2019-10-15 02:48:34 GMT 38.162224 -85.732658 0 0
2019-10-15 02:48:29 GMT 38.162231 -85.732658 0 0
2019-10-15 02:48:19 GMT 38.162224 -85.732658 0 0
2019-10-15 02:48:09 GMT 38.162231 -85.732658 0 0
2019-10-15 02:47:39 GMT 38.162224 -85.732658 0 0
2019-10-15 02:47:34 GMT 38.162231 -85.732658 0 0
2019-10-15 02:47:24 GMT 38.162224 -85.732658 0 0
2019-10-15 02:47:04 GMT 38.162231 -85.732658 0 0
2019-10-15 02:46:34 GMT 38.162224 -85.732658 0 0
2019-10-15 02:46:24 GMT 38.162231 -85.732658 0 0
2019-10-15 02:45:49 GMT 38.162224 -85.732658 0 0
2019-10-15 02:45:34 GMT 38.162231 -85.732658 0 0
2019-10-15 02:45:19 GMT 38.162224 -85.732658 0 0
2019-10-15 02:44:39 GMT 38.162220 -85.732658 0 0
2019-10-15 02:44:29 GMT 38.162224 -85.732658 0 0
2019-10-15 02:44:09 GMT 38.162231 -85.732658 0 0
2019-10-15 02:43:29 GMT 38.162224 -85.732658 0 0
2019-10-15 02:43:24 GMT 38.162231 -85.732658 0 0
2019-10-15 02:42:09 GMT 38.162231 -85.732658 0 0
2019-10-15 02:41:59 GMT 38.162224 -85.732658 0 0
2019-10-15 02:41:49 GMT 38.162220 -85.732658 0 0
2019-10-15 02:40:59 GMT 38.162224 -85.732658 0 0
2019-10-15 02:40:49 GMT 38.162220 -85.732658 0 0
2019-10-15 02:40:04 GMT 38.162224 -85.732658 0 0
2019-10-15 02:39:44 GMT 38.162220 -85.732658 0 0
2019-10-15 02:39:14 GMT 38.162224 -85.732658 0 0
2019-10-15 02:38:59 GMT 38.162220 -85.732658 0 0
2019-10-15 02:38:19 GMT 38.162224 -85.732658 0 0
2019-10-15 02:38:09 GMT 38.162231 -85.732658 0 0
2019-10-15 02:37:48 GMT 38.162224 -85.732658 0 0
2019-10-15 02:37:29 GMT 38.162231 -85.732658 0 0
2019-10-15 02:37:19 GMT 38.162224 -85.732658 0 0
2019-10-15 02:36:58 GMT 38.162231 -85.732658 0 0
2019-10-15 02:36:23 GMT 38.162235 -85.732658 0 0
2019-10-15 02:35:58 GMT 38.162231 -85.732658 0 0
2019-10-15 02:35:44 GMT 38.162224 -85.732658 0 0
2019-10-15 02:34:58 GMT 38.162231 -85.732658 0 0
2019-10-15 02:34:18 GMT 38.162224 -85.732658 0 0
2019-10-15 02:33:58 GMT 38.162231 -85.732658 0 0
2019-10-15 02:32:33 GMT 38.162224 -85.732658 0 0
2019-10-15 02:32:03 GMT 38.162220 -85.732658 0 0
2019-10-15 02:31:54 GMT 38.162224 -85.732658 0 0
2019-10-15 02:31:04 GMT 38.162220 -85.732658 0 0
2019-10-15 02:30:58 GMT 38.162231 -85.732658 0 0
2019-10-15 02:30:49 GMT 38.162224 -85.732658 0 0
2019-10-15 02:30:38 GMT 38.162220 -85.732658 0 0
2019-10-15 02:30:28 GMT 38.162224 -85.732658 0 0
2019-10-15 02:30:18 GMT 38.162220 -85.732658 0 0
2019-10-15 02:30:08 GMT 38.162231 -85.732658 0 0
2019-10-15 02:29:43 GMT 38.162224 -85.732658 0 0
2019-10-15 02:29:32 GMT 38.162231 -85.732658 0 0
2019-10-15 02:29:12 GMT 38.162224 -85.732658 0 0
2019-10-15 02:28:52 GMT 38.162231 -85.732658 0 0
2019-10-15 02:28:22 GMT 38.162224 -85.732658 0 0
2019-10-15 02:28:12 GMT 38.162220 -85.732658 0 0
2019-10-15 02:28:02 GMT 38.162231 -85.732658 0 0
2019-10-15 02:27:51 GMT 38.162220 -85.732658 0 0
2019-10-15 02:27:31 GMT 38.162231 -85.732658 0 0
2019-10-15 02:27:06 GMT 38.162224 -85.732658 0 0
2019-10-15 02:26:56 GMT 38.162231 -85.732658 0 0
2019-10-15 02:26:37 GMT 38.162224 -85.732658 0 0
2019-10-15 02:25:46 GMT 38.162231 -85.732658 0 0
2019-10-15 02:25:31 GMT 38.162235 -85.732658 0 0
2019-10-15 02:25:11 GMT 38.162224 -85.732658 0 0
2019-10-15 02:25:01 GMT 38.162231 -85.732658 0 0
2019-10-15 02:24:46 GMT 38.162224 -85.732658 0 0
2019-10-15 02:24:36 GMT 38.162220 -85.732658 0 0
2019-10-15 02:24:21 GMT 38.162231 -85.732658 0 0
2019-10-15 02:24:11 GMT 38.162220 -85.732658 0 0
2019-10-15 02:24:01 GMT 38.162231 -85.732658 0 0
2019-10-15 02:23:36 GMT 38.162220 -85.732658 0 0
2019-10-15 02:23:16 GMT 38.162231 -85.732658 0 0
2019-10-15 02:23:06 GMT 38.162224 -85.732658 0 0
2019-10-15 02:22:36 GMT 38.162220 -85.732658 0 0
2019-10-15 02:22:26 GMT 38.162231 -85.732658 0 0
2019-10-15 02:22:06 GMT 38.162224 -85.732658 0 0
2019-10-15 02:22:01 GMT 38.162220 -85.732658 0 0
2019-10-15 02:21:21 GMT 38.162231 -85.732658 0 0
2019-10-15 02:21:01 GMT 38.162220 -85.732658 0 0
2019-10-15 02:20:51 GMT 38.162224 -85.732658 0 0
2019-10-15 02:20:31 GMT 38.162231 -85.732658 0 0
2019-10-15 02:19:36 GMT 38.162224 -85.732658 0 0
2019-10-15 02:19:26 GMT 38.162231 -85.732658 0 0
2019-10-15 02:19:16 GMT 38.162224 -85.732658 0 0
2019-10-15 02:19:06 GMT 38.162231 -85.732658 0 0
2019-10-15 02:18:46 GMT 38.162224 -85.732658 0 0
2019-10-15 02:18:21 GMT 38.162231 -85.732658 0 0
2019-10-15 02:18:11 GMT 38.162224 -85.732658 0 0
2019-10-15 02:18:01 GMT 38.162235 -85.732658 0 0
2019-10-15 02:17:47 GMT 38.162224 -85.732658 0 0
2019-10-15 02:17:37 GMT 38.162231 -85.732658 0 0
2019-10-15 02:17:16 GMT 38.162235 -85.732658 0 0
2019-10-15 02:16:56 GMT 38.162224 -85.732658 0 0
2019-10-15 02:16:46 GMT 38.162231 -85.732658 0 0
2019-10-15 02:16:36 GMT 38.162224 -85.732658 0 0
2019-10-15 02:16:06 GMT 38.162231 -85.732658 0 0
2019-10-15 02:15:56 GMT 38.162224 -85.732658 0 0
2019-10-15 02:15:36 GMT 38.162231 -85.732658 0 0
2019-10-15 02:14:56 GMT 38.162224 -85.732658 0 0
2019-10-15 02:14:51 GMT 38.162231 -85.732658 0 0
2019-10-15 02:14:36 GMT 38.162220 -85.732658 0 0
2019-10-15 02:14:21 GMT 38.162224 -85.732658 0 0
2019-10-15 02:13:51 GMT 38.162231 -85.732658 0 0
2019-10-15 02:13:46 GMT 38.162220 -85.732658 0 0
2019-10-15 02:12:51 GMT 38.162224 -85.732658 0 0
2019-10-15 02:12:31 GMT 38.162231 -85.732658 0 0
2019-10-15 02:12:01 GMT 38.162224 -85.732658 0 0
2019-10-15 02:11:51 GMT 38.162231 -85.732658 0 0
2019-10-15 02:11:30 GMT 38.162224 -85.732658 0 0
2019-10-15 02:11:06 GMT 38.162231 -85.732658 0 0
2019-10-15 02:10:56 GMT 38.162224 -85.732658 0 0
2019-10-15 02:09:56 GMT 38.162231 -85.732658 0 0
2019-10-15 02:09:31 GMT 38.162224 -85.732658 0 0
2019-10-15 02:09:16 GMT 38.162220 -85.732658 0 0
2019-10-15 02:09:01 GMT 38.162231 -85.732658 0 0
2019-10-15 02:08:30 GMT 38.162220 -85.732658 0 0
2019-10-15 02:07:50 GMT 38.162224 -85.732658 0 0
2019-10-15 02:07:40 GMT 38.162220 -85.732658 0 0
2019-10-15 02:07:15 GMT 38.162224 -85.732658 0 0
2019-10-15 02:07:05 GMT 38.162220 -85.732658 0 0
2019-10-15 02:06:54 GMT 38.162224 -85.732658 0 0
2019-10-15 02:06:34 GMT 38.162220 -85.732658 0 0
2019-10-15 02:06:24 GMT 38.162231 -85.732658 0 0
2019-10-15 02:06:14 GMT 38.162224 -85.732658 0 0
2019-10-15 02:06:04 GMT 38.162220 -85.732658 0 0
2019-10-15 02:05:49 GMT 38.162224 -85.732658 0 0
2019-10-15 02:05:44 GMT 38.162220 -85.732658 0 0
2019-10-15 02:04:54 GMT 38.162224 -85.732658 0 0
2019-10-15 02:04:49 GMT 38.162231 -85.732658 0 0
2019-10-15 02:04:24 GMT 38.162224 -85.732658 0 0
2019-10-15 02:04:19 GMT 38.162220 -85.732658 0 0
2019-10-15 02:03:24 GMT 38.162224 -85.732658 0 0
2019-10-15 02:03:14 GMT 38.162220 -85.732658 0 0
2019-10-15 02:02:34 GMT 38.162224 -85.732658 0 0
2019-10-15 02:02:13 GMT 38.162220 -85.732658 0 0
2019-10-15 02:01:54 GMT 38.162231 -85.732658 0 0
2019-10-15 02:01:39 GMT 38.162224 -85.732658 0 0
2019-10-15 02:01:24 GMT 38.162220 -85.732658 0 0
2019-10-15 02:00:59 GMT 38.162231 -85.732658 0 0
2019-10-15 02:00:49 GMT 38.162224 -85.732658 0 0
2019-10-15 02:00:18 GMT 38.162231 -85.732658 0 0
2019-10-15 02:00:13 GMT 38.162224 -85.732658 0 0
2019-10-15 02:00:03 GMT 38.162231 -85.732658 0 0
2019-10-15 01:59:43 GMT 38.162224 -85.732658 0 0
2019-10-15 01:59:18 GMT 38.162220 -85.732658 0 0
2019-10-15 01:59:14 GMT 38.162224 -85.732658 0 0
2019-10-15 01:59:04 GMT 38.162220 -85.732658 0 0
2019-10-15 01:58:49 GMT 38.162224 -85.732658 0 0
2019-10-15 01:58:39 GMT 38.162231 -85.732658 0 0
2019-10-15 01:58:19 GMT 38.162224 -85.732658 0 0
2019-10-15 01:58:09 GMT 38.162220 -85.732658 0 0
2019-10-15 01:57:49 GMT 38.162224 -85.732658 0 0
2019-10-15 01:56:24 GMT 38.162224 -85.732658 0 0
2019-10-15 01:56:09 GMT 38.162220 -85.732658 0 0
2019-10-15 01:55:44 GMT 38.162224 -85.732658 0 0
2019-10-15 01:55:29 GMT 38.162220 -85.732658 0 0
2019-10-15 01:55:09 GMT 38.162224 -85.732658 0 0
2019-10-15 01:54:59 GMT 38.162220 -85.732658 0 0
2019-10-15 01:53:53 GMT 38.162224 -85.732658 0 0
2019-10-15 01:53:43 GMT 38.162220 -85.732658 0 0
2019-10-15 01:53:38 GMT 38.162224 -85.732658 0 0
2019-10-15 01:53:03 GMT 38.162220 -85.732658 0 0
2019-10-15 01:52:53 GMT 38.162224 -85.732658 0 0
2019-10-15 01:52:43 GMT 38.162220 -85.732658 0 0
2019-10-15 01:51:38 GMT 38.162220 -85.732658 0 0
2019-10-15 01:50:38 GMT 38.162224 -85.732658 0 0
2019-10-15 01:50:28 GMT 38.162220 -85.732658 0 0
2019-10-15 01:49:48 GMT 38.162224 -85.732658 0 0
2019-10-15 01:49:43 GMT 38.162220 -85.732658 0 0
2019-10-15 01:49:33 GMT 38.162224 -85.732658 0 0
2019-10-15 01:49:13 GMT 38.162220 -85.732658 0 0
2019-10-15 01:48:49 GMT 38.162224 -85.732658 0 0
2019-10-15 01:48:43 GMT 38.162220 -85.732658 0 0
2019-10-15 01:48:28 GMT 38.162224 -85.732658 0 0
2019-10-15 01:48:13 GMT 38.162220 -85.732658 0 0
2019-10-15 01:47:58 GMT 38.162224 -85.732658 0 0
2019-10-15 01:47:28 GMT 38.162220 -85.732658 0 0
2019-10-15 01:47:03 GMT 38.162224 -85.732658 0 0
2019-10-15 01:46:47 GMT 38.162220 -85.732658 0 0
2019-10-15 01:46:27 GMT 38.162224 -85.732658 0 0
2019-10-15 01:46:07 GMT 38.162231 -85.732658 0 0
2019-10-15 01:45:47 GMT 38.162224 -85.732658 0 0
2019-10-15 01:45:01 GMT 38.162231 -85.732658 0 0
2019-10-15 01:44:51 GMT 38.162224 -85.732658 0 0
2019-10-15 01:44:16 GMT 38.162231 -85.732658 0 0
2019-10-15 01:43:46 GMT 38.162224 -85.732658 0 0
2019-10-15 01:43:26 GMT 38.162231 -85.732658 0 0
2019-10-15 01:43:01 GMT 38.162224 -85.732658 0 0
2019-10-15 01:42:56 GMT 38.162220 -85.732658 0 0
2019-10-15 01:42:46 GMT 38.162224 -85.732658 0 0
2019-10-15 01:42:16 GMT 38.162220 -85.732658 0 0
2019-10-15 01:42:11 GMT 38.162224 -85.732658 0 0
2019-10-15 01:41:51 GMT 38.162220 -85.732658 0 0
2019-10-15 01:41:11 GMT 38.162224 -85.732658 0 0
2019-10-15 01:41:01 GMT 38.162220 -85.732658 0 0
2019-10-15 01:40:21 GMT 38.162224 -85.732658 0 0
2019-10-15 01:40:11 GMT 38.162220 -85.732658 0 0
2019-10-15 01:40:06 GMT 38.162224 -85.732658 0 0
2019-10-15 01:39:56 GMT 38.162220 -85.732658 0 0
2019-10-15 01:39:46 GMT 38.162224 -85.732658 0 0
2019-10-15 01:39:36 GMT 38.162220 -85.732658 0 0
2019-10-15 01:39:26 GMT 38.162224 -85.732658 0 0
2019-10-15 01:39:16 GMT 38.162220 -85.732658 0 0
2019-10-15 01:39:01 GMT 38.162231 -85.732658 0 0
2019-10-15 01:38:51 GMT 38.162224 -85.732658 0 0
2019-10-15 01:38:41 GMT 38.162220 -85.732658 0 0
2019-10-15 01:38:31 GMT 38.162224 -85.732674 0 0
2019-10-15 01:38:01 GMT 38.162220 -85.732658 0 0
2019-10-15 01:37:51 GMT 38.162224 -85.732674 0 0
2019-10-15 01:37:41 GMT 38.162220 -85.732658 0 0
2019-10-15 01:37:06 GMT 38.162224 -85.732658 0 0
2019-10-15 01:36:46 GMT 38.162220 -85.732658 0 0
2019-10-15 01:35:41 GMT 38.162224 -85.732658 0 0
2019-10-15 01:35:31 GMT 38.162220 -85.732658 0 0
2019-10-15 01:35:16 GMT 38.162224 -85.732658 0 0
2019-10-15 01:35:02 GMT 38.162224 -85.732674 0 0
2019-10-15 01:34:57 GMT 38.162224 -85.732658 0 0
2019-10-15 01:34:36 GMT 38.162220 -85.732658 0 0
2019-10-15 01:34:21 GMT 38.162224 -85.732658 0 0
2019-10-15 01:34:01 GMT 38.162220 -85.732658 0 0
2019-10-15 01:33:41 GMT 38.162224 -85.732658 0 0
2019-10-15 01:33:31 GMT 38.162220 -85.732658 0 0
2019-10-15 01:32:56 GMT 38.162224 -85.732658 0 0
2019-10-15 01:32:50 GMT 38.162220 -85.732658 0 0
2019-10-15 01:32:35 GMT 38.162224 -85.732658 0 0
2019-10-15 01:32:20 GMT 38.162220 -85.732658 0 0
2019-10-15 01:32:16 GMT 38.162224 -85.732658 0 0
2019-10-15 01:30:50 GMT 38.162220 -85.732658 0 0
2019-10-15 01:30:40 GMT 38.162224 -85.732658 0 0
2019-10-15 01:30:15 GMT 38.162220 -85.732658 0 0
2019-10-15 01:29:56 GMT 38.162224 -85.732658 0 0
2019-10-15 01:29:46 GMT 38.162220 -85.732658 0 0
2019-10-15 01:29:26 GMT 38.162224 -85.732658 0 0
2019-10-15 01:29:05 GMT 38.162220 -85.732658 0 0
2019-10-15 01:28:45 GMT 38.162224 -85.732658 0 0
2019-10-15 01:27:36 GMT 38.162220 -85.732658 0 0
2019-10-15 01:27:26 GMT 38.162224 -85.732658 0 0
2019-10-15 01:27:21 GMT 38.162220 -85.732658 0 0
2019-10-15 01:27:01 GMT 38.162224 -85.732658 0 0
2019-10-15 01:26:51 GMT 38.162220 -85.732658 0 0
2019-10-15 01:26:41 GMT 38.162224 -85.732658 0 0
2019-10-15 01:26:11 GMT 38.162220 -85.732658 0 0
2019-10-15 01:25:05 GMT 38.162224 -85.732658 0 0
2019-10-15 01:24:54 GMT 38.162231 -85.732658 0 0
2019-10-15 01:24:44 GMT 38.162220 -85.732658 0 0
2019-10-15 01:24:30 GMT 38.162224 -85.732658 0 0
2019-10-15 01:24:19 GMT 38.162231 -85.732658 0 0
2019-10-15 01:24:09 GMT 38.162224 -85.732658 0 0
2019-10-15 01:23:24 GMT 38.162220 -85.732658 0 0
2019-10-15 01:23:19 GMT 38.162231 -85.732658 0 0
2019-10-15 01:22:39 GMT 38.162220 -85.732658 0 0
2019-10-15 01:21:53 GMT 38.162224 -85.732658 0 0
2019-10-15 01:21:19 GMT 38.162220 -85.732658 0 0
2019-10-15 01:21:14 GMT 38.162224 -85.732658 0 0
2019-10-15 01:20:59 GMT 38.162220 -85.732658 0 0
2019-10-15 01:20:39 GMT 38.162224 -85.732658 0 0
2019-10-15 01:20:23 GMT 38.162231 -85.732658 0 0
2019-10-15 01:20:08 GMT 38.162224 -85.732658 0 0
2019-10-15 01:19:53 GMT 38.162220 -85.732658 0 0
2019-10-15 01:19:48 GMT 38.162224 -85.732658 0 0
2019-10-15 01:19:28 GMT 38.162220 -85.732658 0 0
2019-10-15 01:19:04 GMT 38.162224 -85.732658 0 0
2019-10-15 01:18:49 GMT 38.162220 -85.732658 0 0
2019-10-15 01:18:43 GMT 38.162224 -85.732658 0 0
2019-10-15 01:18:33 GMT 38.162220 -85.732658 0 0
2019-10-15 01:18:23 GMT 38.162224 -85.732658 0 0
2019-10-15 01:18:14 GMT 38.162220 -85.732658 0 0
2019-10-15 01:18:04 GMT 38.162224 -85.732658 0 0
2019-10-15 01:17:43 GMT 38.162220 -85.732658 0 0
2019-10-15 01:17:28 GMT 38.162224 -85.732658 0 0
2019-10-15 01:17:03 GMT 38.162220 -85.732658 0 0
2019-10-15 01:16:58 GMT 38.162224 -85.732658 0 0
2019-10-15 01:16:33 GMT 38.162220 -85.732658 0 0
2019-10-15 01:16:28 GMT 38.162224 -85.732658 0 0
2019-10-15 01:16:19 GMT 38.162220 -85.732658 0 0
2019-10-15 01:15:49 GMT 38.162224 -85.732674 0 0
2019-10-15 01:15:39 GMT 38.162224 -85.732658 0 0
2019-10-15 01:15:34 GMT 38.162224 -85.732674 0 0
2019-10-15 01:14:33 GMT 38.162224 -85.732658 0 0
2019-10-15 01:14:24 GMT 38.162231 -85.732658 0 0
2019-10-15 01:14:09 GMT 38.162224 -85.732658 0 0
2019-10-15 01:13:49 GMT 38.162220 -85.732658 0 0
2019-10-15 01:13:39 GMT 38.162231 -85.732658 0 0
2019-10-15 01:13:29 GMT 38.162224 -85.732658 0 0
2019-10-15 01:12:49 GMT 38.162231 -85.732658 0 0
2019-10-15 01:12:39 GMT 38.162224 -85.732658 0 0
2019-10-15 01:12:18 GMT 38.162231 -85.732658 0 0
2019-10-15 01:11:48 GMT 38.162220 -85.732658 0 0
2019-10-15 01:11:23 GMT 38.162231 -85.732658 0 0
2019-10-15 01:10:58 GMT 38.162224 -85.732658 0 0
2019-10-15 01:10:53 GMT 38.162220 -85.732658 0 0
2019-10-15 01:10:18 GMT 38.162224 -85.732658 0 0
2019-10-15 01:10:08 GMT 38.162231 -85.732658 0 0
2019-10-15 01:09:33 GMT 38.162224 -85.732658 0 0
2019-10-15 01:09:23 GMT 38.162231 -85.732658 0 0
2019-10-15 01:09:13 GMT 38.162224 -85.732658 0 0
2019-10-15 01:08:58 GMT 38.162231 -85.732658 0 0
2019-10-15 01:08:28 GMT 38.162224 -85.732658 0 0
2019-10-15 01:08:08 GMT 38.162231 -85.732658 0 0
2019-10-15 01:07:43 GMT 38.162224 -85.732658 0 0
2019-10-15 01:07:38 GMT 38.162231 -85.732658 0 0
2019-10-15 01:07:08 GMT 38.162220 -85.732658 0 0
2019-10-15 01:05:48 GMT 38.162224 -85.732658 0 0
2019-10-15 01:05:43 GMT 38.162231 -85.732658 0 0
2019-10-15 01:05:33 GMT 38.162224 -85.732658 0 0
2019-10-15 01:05:18 GMT 38.162231 -85.732658 0 0
2019-10-15 01:05:08 GMT 38.162224 -85.732658 0 0
2019-10-15 01:04:58 GMT 38.162231 -85.732658 0 0
2019-10-15 01:04:38 GMT 38.162224 -85.732658 0 0
2019-10-15 01:04:23 GMT 38.162235 -85.732658 0 0
2019-10-15 01:04:18 GMT 38.162231 -85.732658 0 0
2019-10-15 01:04:07 GMT 38.162224 -85.732658 0 0
2019-10-15 01:03:52 GMT 38.162220 -85.732658 0 0
2019-10-15 01:03:47 GMT 38.162231 -85.732658 0 0
2019-10-15 01:03:37 GMT 38.162224 -85.732658 0 0
2019-10-15 01:03:12 GMT 38.162231 -85.732658 0 0
2019-10-15 01:02:52 GMT 38.162220 -85.732658 0 0
2019-10-15 01:01:56 GMT 38.162224 -85.732658 0 0
2019-10-15 01:01:51 GMT 38.162220 -85.732658 0 0
2019-10-15 01:01:06 GMT 38.162224 -85.732658 0 0
2019-10-15 01:00:51 GMT 38.162231 -85.732658 0 0
2019-10-15 01:00:16 GMT 38.162220 -85.732658 0 0
2019-10-15 00:59:41 GMT 38.162231 -85.732658 0 0
2019-10-15 00:59:26 GMT 38.162220 -85.732658 0 0
2019-10-15 00:58:31 GMT 38.162224 -85.732658 0 0
2019-10-15 00:58:01 GMT 38.162220 -85.732658 0 0
2019-10-15 00:57:56 GMT 38.162224 -85.732658 0 0
2019-10-15 00:57:21 GMT 38.162220 -85.732658 0 0
2019-10-15 00:56:51 GMT 38.162224 -85.732658 0 0
2019-10-15 00:56:41 GMT 38.162220 -85.732658 0 0
2019-10-15 00:56:16 GMT 38.162224 -85.732658 0 0
2019-10-15 00:56:06 GMT 38.162220 -85.732658 0 0
2019-10-15 00:55:51 GMT 38.162224 -85.732658 0 0
2019-10-15 00:55:35 GMT 38.162220 -85.732658 0 0
2019-10-15 00:55:16 GMT 38.162224 -85.732658 0 0
2019-10-15 00:55:06 GMT 38.162220 -85.732658 0 0
2019-10-15 00:55:01 GMT 38.162224 -85.732658 0 0
2019-10-15 00:53:46 GMT 38.162220 -85.732658 0 0
2019-10-15 00:53:36 GMT 38.162224 -85.732658 0 0
2019-10-15 00:53:11 GMT 38.162220 -85.732658 0 0
2019-10-15 00:52:51 GMT 38.162224 -85.732658 0 0
2019-10-15 00:52:16 GMT 38.162220 -85.732658 0 0
2019-10-15 00:52:01 GMT 38.162224 -85.732658 0 0
2019-10-15 00:51:41 GMT 38.162220 -85.732658 0 0
2019-10-15 00:51:26 GMT 38.162231 -85.732658 0 0
2019-10-15 00:51:16 GMT 38.162224 -85.732658 0 0
2019-10-15 00:51:01 GMT 38.162231 -85.732658 0 0
2019-10-15 00:50:56 GMT 38.162220 -85.732658 0 0
2019-10-15 00:50:36 GMT 38.162224 -85.732658 0 0
2019-10-15 00:50:11 GMT 38.162220 -85.732658 0 0
2019-10-15 00:50:00 GMT 38.162231 -85.732658 0 0
2019-10-15 00:49:55 GMT 38.162224 -85.732658 0 0
2019-10-15 00:49:45 GMT 38.162220 -85.732658 0 0
2019-10-15 00:48:56 GMT 38.162224 -85.732658 0 0
2019-10-15 00:48:51 GMT 38.162220 -85.732658 0 0
2019-10-15 00:48:10 GMT 38.162224 -85.732658 0 0
2019-10-15 00:48:00 GMT 38.162231 -85.732658 0 0
2019-10-15 00:47:30 GMT 38.162224 -85.732658 0 0
2019-10-15 00:47:25 GMT 38.162220 -85.732658 0 0
2019-10-15 00:47:06 GMT 38.162224 -85.732658 0 0
2019-10-15 00:46:26 GMT 38.162231 -85.732658 0 0
2019-10-15 00:46:00 GMT 38.162220 -85.732658 0 0
2019-10-15 00:45:50 GMT 38.162224 -85.732658 0 0
2019-10-15 00:45:40 GMT 38.162220 -85.732658 0 0
2019-10-15 00:45:11 GMT 38.162224 -85.732658 0 0
2019-10-15 00:45:01 GMT 38.162231 -85.732658 0 0
2019-10-15 00:44:51 GMT 38.162224 -85.732658 0 0
2019-10-15 00:44:41 GMT 38.162220 -85.732658 0 0
2019-10-15 00:44:26 GMT 38.162224 -85.732658 0 0
2019-10-15 00:44:16 GMT 38.162220 -85.732658 0 0
2019-10-15 00:44:06 GMT 38.162224 -85.732658 0 0
2019-10-15 00:43:56 GMT 38.162231 -85.732658 0 0
2019-10-15 00:43:46 GMT 38.162224 -85.732658 0 0
2019-10-15 00:43:35 GMT 38.162220 -85.732658 0 0
2019-10-15 00:43:15 GMT 38.162224 -85.732658 0 0
2019-10-15 00:42:55 GMT 38.162220 -85.732658 0 0
2019-10-15 00:42:40 GMT 38.162224 -85.732658 0 0
2019-10-15 00:42:25 GMT 38.162231 -85.732658 0 0
2019-10-15 00:42:14 GMT 38.162224 -85.732674 0 0
2019-10-15 00:41:54 GMT 38.162220 -85.732658 0 0
2019-10-15 00:41:29 GMT 38.162231 -85.732658 0 0
2019-10-15 00:40:39 GMT 38.162224 -85.732658 0 0
2019-10-15 00:40:19 GMT 38.162231 -85.732658 0 0
2019-10-15 00:39:59 GMT 38.162220 -85.732658 0 0
2019-10-15 00:39:34 GMT 38.162224 -85.732658 0 0
2019-10-15 00:39:04 GMT 38.162231 -85.732658 0 0
2019-10-15 00:38:54 GMT 38.162220 -85.732658 0 0
2019-10-15 00:38:34 GMT 38.162224 -85.732658 0 0
2019-10-15 00:38:19 GMT 38.162220 -85.732658 0 0
2019-10-15 00:38:09 GMT 38.162224 -85.732658 0 0
2019-10-15 00:37:48 GMT 38.162231 -85.732658 0 0
2019-10-15 00:37:28 GMT 38.162224 -85.732658 0 0
2019-10-15 00:37:03 GMT 38.162231 -85.732658 0 0
2019-10-15 00:36:48 GMT 38.162224 -85.732658 0 0
2019-10-15 00:36:38 GMT 38.162231 -85.732658 0 0
2019-10-15 00:36:23 GMT 38.162224 -85.732658 0 0
2019-10-15 00:36:13 GMT 38.162231 -85.732658 0 0
2019-10-15 00:35:33 GMT 38.162224 -85.732658 0 0
2019-10-15 00:35:24 GMT 38.162220 -85.732658 0 0
2019-10-15 00:35:03 GMT 38.162231 -85.732658 0 0
2019-10-15 00:34:28 GMT 38.162224 -85.732658 0 0
2019-10-15 00:34:13 GMT 38.162231 -85.732658 0 0
2019-10-15 00:34:08 GMT 38.162224 -85.732658 0 0
2019-10-15 00:33:58 GMT 38.162231 -85.732658 0 0
2019-10-15 00:33:48 GMT 38.162235 -85.732658 0 0
2019-10-15 00:33:38 GMT 38.162224 -85.732658 0 0
2019-10-15 00:32:54 GMT 38.162231 -85.732658 0 0
2019-10-15 00:32:14 GMT 38.162224 -85.732658 0 0
2019-10-15 00:32:03 GMT 38.162231 -85.732658 0 0
2019-10-15 00:31:53 GMT 38.162220 -85.732658 0 0
2019-10-15 00:31:43 GMT 38.162231 -85.732658 0 0
2019-10-15 00:31:28 GMT 38.162224 -85.732658 0 0
2019-10-15 00:31:09 GMT 38.162231 -85.732658 0 0
2019-10-15 00:30:49 GMT 38.162220 -85.732658 0 0
2019-10-15 00:30:28 GMT 38.162224 -85.732658 0 0
2019-10-15 00:30:08 GMT 38.162220 -85.732658 0 0
2019-10-15 00:29:53 GMT 38.162224 -85.732658 0 0
2019-10-15 00:29:18 GMT 38.162220 -85.732658 0 0
2019-10-15 00:29:13 GMT 38.162224 -85.732658 0 0
2019-10-15 00:28:53 GMT 38.162224 -85.732674 0 0
2019-10-15 00:28:33 GMT 38.162224 -85.732658 0 0
2019-10-15 00:28:23 GMT 38.162220 -85.732658 0 0
2019-10-15 00:28:13 GMT 38.162224 -85.732658 0 0
2019-10-15 00:28:03 GMT 38.162231 -85.732658 0 0
2019-10-15 00:27:48 GMT 38.162224 -85.732658 0 0
2019-10-15 00:27:23 GMT 38.162231 -85.732658 0 0
2019-10-15 00:26:58 GMT 38.162224 -85.732658 0 0
2019-10-15 00:26:48 GMT 38.162235 -85.732658 0 0
2019-10-15 00:26:23 GMT 38.162231 -85.732658 0 0
2019-10-15 00:26:18 GMT 38.162224 -85.732658 0 0
2019-10-15 00:25:33 GMT 38.162231 -85.732658 0 0
2019-10-15 00:25:18 GMT 38.162220 -85.732658 0 0
2019-10-15 00:24:58 GMT 38.162224 -85.732658 0 0
2019-10-15 00:24:18 GMT 38.162231 -85.732658 0 0
2019-10-15 00:24:08 GMT 38.162224 -85.732658 0 0
2019-10-15 00:23:38 GMT 38.162220 -85.732658 0 0
2019-10-15 00:23:28 GMT 38.162224 -85.732658 0 0
2019-10-15 00:22:53 GMT 38.162220 -85.732658 0 0
2019-10-15 00:21:53 GMT 38.162224 -85.732658 0 0
2019-10-15 00:21:27 GMT 38.162220 -85.732658 0 0
2019-10-15 00:21:17 GMT 38.162224 -85.732658 0 0
2019-10-15 00:21:07 GMT 38.162231 -85.732658 0 0
2019-10-15 00:21:02 GMT 38.162220 -85.732658 0 0
2019-10-15 00:20:31 GMT 38.162224 -85.732658 0 0
2019-10-15 00:20:11 GMT 38.162254 -85.732544 0 2
2019-10-15 00:19:42 GMT 38.162327 -85.732140 0 3
2019-10-15 00:19:35 GMT 38.162350 -85.732018 0 3
2019-10-15 00:19:04 GMT 38.162453 -85.731499 0 3
2019-10-15 00:18:57 GMT 38.162476 -85.731377 0 3
2019-10-15 00:18:44 GMT 38.162525 -85.731171 0 3
2019-10-15 00:18:30 GMT 38.162560 -85.730934 0 3
2019-10-15 00:18:25 GMT 38.162571 -85.730843 0 3
2019-10-15 00:18:15 GMT 38.162613 -85.730675 0 3
2019-10-15 00:18:05 GMT 38.162663 -85.730499 0 3
2019-10-15 00:17:36 GMT 38.162773 -85.730019 0 3
2019-10-15 00:16:52 GMT 38.162685 -85.729271 0 3
2019-10-15 00:16:41 GMT 38.162647 -85.729080 0 3
2019-10-15 00:15:52 GMT 38.162395 -85.728287 0 3
2019-10-15 00:15:45 GMT 38.162361 -85.728188 0 3
2019-10-15 00:15:37 GMT 38.162315 -85.728058 0 3
2019-10-15 00:15:22 GMT 38.162243 -85.727829 0 3
2019-10-15 00:15:11 GMT 38.162189 -85.727646 0 3
2019-10-15 00:14:51 GMT 38.162094 -85.727318 0 3
2019-10-15 00:14:43 GMT 38.162064 -85.727196 0 3
2019-10-15 00:14:34 GMT 38.162018 -85.727036 0 3
2019-10-15 00:14:23 GMT 38.161964 -85.726852 0 3
2019-10-15 00:14:02 GMT 38.161850 -85.726524 0 3
2019-10-15 00:13:42 GMT 38.161743 -85.726227 0 3
2019-10-15 00:13:31 GMT 38.161709 -85.726036 0 3
2019-10-15 00:13:21 GMT 38.161674 -85.725868 0 3
2019-10-15 00:13:11 GMT 38.161629 -85.725708 0 3
We lost coverage of the aircraft here for a total of 154 minutes
2019-10-14 21:39:21 GMT 38.161594 -85.725548 0 106 0
2019-10-14 21:38:31 GMT 38.161594 -85.725540 0 106 0
2019-10-14 21:38:11 GMT 38.161594 -85.725548 0 106 0
2019-10-14 21:37:56 GMT 38.161594 -85.725540 0 106 0
2019-10-14 21:37:51 GMT 38.161594 -85.725548 0 106 0
2019-10-14 21:36:50 GMT 38.161594 -85.725548 0 106 0
2019-10-14 21:36:30 GMT 38.161594 -85.725540 0 106 0
2019-10-14 21:35:45 GMT 38.161594 -85.725548 0 106 0
2019-10-14 21:35:30 GMT 38.161594 -85.725540 0 106 0
2019-10-14 21:35:25 GMT 38.161594 -85.725548 0 106 0
2019-10-14 21:35:00 GMT 38.161594 -85.725540 0 106 0
2019-10-14 21:34:40 GMT 38.161594 -85.725548 0 106 0
2019-10-14 21:33:45 GMT 38.161594 -85.725540 0 106 0

Making use of Plane Finder data

You are free to use the raw flight data, aircraft information and images provided in this report for your own purposes provided the data is correctly attributed to Plane Finder. We ask that you please credit Plane Finder and link to planefinder.net in close proximity to the content.

Optionally one of the following logos (no smaller then 150x24px) can be used and must link to planefinder.net

Embedding the Plane Finder map

You are welcome to embed the Plane Finder playback map on your website to offer visitors a more interactive experience. We suggest using the following HTML code:

<iframe src="//planefinder.net/data/report/5X789-N254UP-7700-squawk-2019-10-14/map" width="800" height="600" seamless="seamless"></iframe>

Where our data comes from

Plane Finder has a global network of data feeds and antenna radars that receive data broadcast directly from aircraft. The primary technologies used are ADS-B and MLAT. We also show feeds from the FAA and a FLARM glider feed.

Click here to find out more about the Plane Finder network.

How we collect our data